<?xml version="1.0" encoding="UTF-8" standalone="no" ?>
<gpx xmlns="http://www.topografix.com/GPX/1/1" xmlns:xsi="http://www.w3.org/2001/XMLSchema-instance" xsi:schemaLocation="http://www.topografix.com/GPX/1/1 http://www.topografix.com/GPX/1/1/gpx.xsd" version="1.1" creator="VisuGPX - https://www.visugpx.com">
  <metadata>
    <name>mons en pevele 60</name>
  </metadata>
  <trk>
    <name><![CDATA[mons en pevele 60]]></name>
    <trkseg>
      <trkpt lat="50.50362" lon="3.46434">
        <ele>20.805558</ele>
        <time>2021-06-29T17:02:47.414Z</time>
      </trkpt>
      <trkpt lat="50.50362" lon="3.46434">
        <ele>20.805558</ele>
        <time>2021-06-29T17:02:47.447Z</time>
      </trkpt>
      <trkpt lat="50.50361" lon="3.46454">
        <ele>20.805558</ele>
        <time>2021-06-29T17:03:01.735Z</time>
      </trkpt>
      <trkpt lat="50.5034" lon="3.46438">
        <ele>20.805558</ele>
        <time>2021-06-29T17:03:05.325Z</time>
      </trkpt>
      <trkpt lat="50.50316" lon="3.46422">
        <ele>20.805558</ele>
        <time>2021-06-29T17:03:09.442Z</time>
      </trkpt>
      <trkpt lat="50.50313" lon="3.46411">
        <ele>20.805558</ele>
        <time>2021-06-29T17:03:10.521Z</time>
      </trkpt>
      <trkpt lat="50.50317" lon="3.46374">
        <ele>20.799043</ele>
        <time>2021-06-29T17:03:14.207Z</time>
      </trkpt>
      <trkpt lat="50.50325" lon="3.46304">
        <ele>20.719952</ele>
        <time>2021-06-29T17:03:20.785Z</time>
      </trkpt>
      <trkpt lat="50.50335" lon="3.46236">
        <ele>20.641847</ele>
        <time>2021-06-29T17:03:27.218Z</time>
      </trkpt>
      <trkpt lat="50.50345" lon="3.46155">
        <ele>20.550423</ele>
        <time>2021-06-29T17:03:34.595Z</time>
      </trkpt>
      <trkpt lat="50.50361" lon="3.46074">
        <ele>20.402104</ele>
        <time>2021-06-29T17:03:41.868Z</time>
      </trkpt>
      <trkpt lat="50.5041" lon="3.45851">
        <ele>19.726455</ele>
        <time>2021-06-29T17:04:01.916Z</time>
      </trkpt>
      <trkpt lat="50.50424" lon="3.45772">
        <ele>19.49684</ele>
        <time>2021-06-29T17:04:08.976Z</time>
      </trkpt>
      <trkpt lat="50.50433" lon="3.4572">
        <ele>19.34545</ele>
        <time>2021-06-29T17:04:13.668Z</time>
      </trkpt>
      <trkpt lat="50.50436" lon="3.45642">
        <ele>19.128885</ele>
        <time>2021-06-29T17:04:20.451Z</time>
      </trkpt>
      <trkpt lat="50.50437" lon="3.45631">
        <ele>19.098091</ele>
        <time>2021-06-29T17:04:21.285Z</time>
      </trkpt>
      <trkpt lat="50.5044" lon="3.45588">
        <ele>18.976326</ele>
        <time>2021-06-29T17:04:25.244Z</time>
      </trkpt>
      <trkpt lat="50.50441" lon="3.45573">
        <ele>18.933426</ele>
        <time>2021-06-29T17:04:26.438Z</time>
      </trkpt>
      <trkpt lat="50.50441" lon="3.45568">
        <ele>18.919093</ele>
        <time>2021-06-29T17:04:26.882Z</time>
      </trkpt>
      <trkpt lat="50.50443" lon="3.45552">
        <ele>18.868798</ele>
        <time>2021-06-29T17:04:28.313Z</time>
      </trkpt>
      <trkpt lat="50.50448" lon="3.45508">
        <ele>18.717138</ele>
        <time>2021-06-29T17:04:31.864Z</time>
      </trkpt>
      <trkpt lat="50.50447" lon="3.4549">
        <ele>18.653256</ele>
        <time>2021-06-29T17:04:33.449Z</time>
      </trkpt>
      <trkpt lat="50.50444" lon="3.45482">
        <ele>18.620652</ele>
        <time>2021-06-29T17:04:34.254Z</time>
      </trkpt>
      <trkpt lat="50.50416" lon="3.45464">
        <ele>18.459531</ele>
        <time>2021-06-29T17:04:38.130Z</time>
      </trkpt>
      <trkpt lat="50.50407" lon="3.45459">
        <ele>18.405509</ele>
        <time>2021-06-29T17:04:39.459Z</time>
      </trkpt>
      <trkpt lat="50.50355" lon="3.45425">
        <ele>18.102243</ele>
        <time>2021-06-29T17:04:46.941Z</time>
      </trkpt>
      <trkpt lat="50.50341" lon="3.45413">
        <ele>18.015617</ele>
        <time>2021-06-29T17:04:49.118Z</time>
      </trkpt>
      <trkpt lat="50.5031" lon="3.45386">
        <ele>17.861486</ele>
        <time>2021-06-29T17:04:53.778Z</time>
      </trkpt>
      <trkpt lat="50.50229" lon="3.45322">
        <ele>17.561048</ele>
        <time>2021-06-29T17:05:05.221Z</time>
      </trkpt>
      <trkpt lat="50.50193" lon="3.45294">
        <ele>17.430666</ele>
        <time>2021-06-29T17:05:11.232Z</time>
      </trkpt>
      <trkpt lat="50.50142" lon="3.45258">
        <ele>17.344263</ele>
        <time>2021-06-29T17:05:20.515Z</time>
      </trkpt>
      <trkpt lat="50.5013" lon="3.45249">
        <ele>17.353733</ele>
        <time>2021-06-29T17:05:22.531Z</time>
      </trkpt>
      <trkpt lat="50.50092" lon="3.45227">
        <ele>17.382484</ele>
        <time>2021-06-29T17:05:29.039Z</time>
      </trkpt>
      <trkpt lat="50.50084" lon="3.45223">
        <ele>17.388553</ele>
        <time>2021-06-29T17:05:30.359Z</time>
      </trkpt>
      <trkpt lat="50.50052" lon="3.45203">
        <ele>17.413331</ele>
        <time>2021-06-29T17:05:35.351Z</time>
      </trkpt>
      <trkpt lat="50.50051" lon="3.45202">
        <ele>17.414521</ele>
        <time>2021-06-29T17:05:35.599Z</time>
      </trkpt>
      <trkpt lat="50.50044" lon="3.45199">
        <ele>17.419553</ele>
        <time>2021-06-29T17:05:36.623Z</time>
      </trkpt>
      <trkpt lat="50.50005" lon="3.45189">
        <ele>17.447927</ele>
        <time>2021-06-29T17:05:42.236Z</time>
      </trkpt>
      <trkpt lat="50.49999" lon="3.45188">
        <ele>17.452486</ele>
        <time>2021-06-29T17:05:43.104Z</time>
      </trkpt>
      <trkpt lat="50.49974" lon="3.45177">
        <ele>17.317226</ele>
        <time>2021-06-29T17:05:46.894Z</time>
      </trkpt>
      <trkpt lat="50.49958" lon="3.45159">
        <ele>17.184282</ele>
        <time>2021-06-29T17:05:49.706Z</time>
      </trkpt>
      <trkpt lat="50.49943" lon="3.45125">
        <ele>17.011261</ele>
        <time>2021-06-29T17:05:53.358Z</time>
      </trkpt>
      <trkpt lat="50.49935" lon="3.45106">
        <ele>16.912119</ele>
        <time>2021-06-29T17:05:55.334Z</time>
      </trkpt>
      <trkpt lat="50.49874" lon="3.44964">
        <ele>16.218403</ele>
        <time>2021-06-29T17:06:08.569Z</time>
      </trkpt>
      <trkpt lat="50.49867" lon="3.44946">
        <ele>16.164092</ele>
        <time>2021-06-29T17:06:10.172Z</time>
      </trkpt>
      <trkpt lat="50.49864" lon="3.44939">
        <ele>16.142753</ele>
        <time>2021-06-29T17:06:10.813Z</time>
      </trkpt>
      <trkpt lat="50.49851" lon="3.44909">
        <ele>16.05051</ele>
        <time>2021-06-29T17:06:13.707Z</time>
      </trkpt>
      <trkpt lat="50.49844" lon="3.44889">
        <ele>15.99005</ele>
        <time>2021-06-29T17:06:15.599Z</time>
      </trkpt>
      <trkpt lat="50.49799" lon="3.44762">
        <ele>15.62005</ele>
        <time>2021-06-29T17:06:28.628Z</time>
      </trkpt>
      <trkpt lat="50.49798" lon="3.44759">
        <ele>15.611851</ele>
        <time>2021-06-29T17:06:28.873Z</time>
      </trkpt>
      <trkpt lat="50.49776" lon="3.4469">
        <ele>15.780522</ele>
        <time>2021-06-29T17:06:36.868Z</time>
      </trkpt>
      <trkpt lat="50.49754" lon="3.44626">
        <ele>16.137473</ele>
        <time>2021-06-29T17:06:44.607Z</time>
      </trkpt>
      <trkpt lat="50.49735" lon="3.44569">
        <ele>16.454056</ele>
        <time>2021-06-29T17:06:52.286Z</time>
      </trkpt>
      <trkpt lat="50.49687" lon="3.44433">
        <ele>17.195668</ele>
        <time>2021-06-29T17:07:11.885Z</time>
      </trkpt>
      <trkpt lat="50.49674" lon="3.44405">
        <ele>17.352174</ele>
        <time>2021-06-29T17:07:15.896Z</time>
      </trkpt>
      <trkpt lat="50.49672" lon="3.44401">
        <ele>17.374908</ele>
        <time>2021-06-29T17:07:16.782Z</time>
      </trkpt>
      <trkpt lat="50.49669" lon="3.44396">
        <ele>17.406949</ele>
        <time>2021-06-29T17:07:17.594Z</time>
      </trkpt>
      <trkpt lat="50.49663" lon="3.44393">
        <ele>17.449485</ele>
        <time>2021-06-29T17:07:18.644Z</time>
      </trkpt>
      <trkpt lat="50.49648" lon="3.44404">
        <ele>17.565522</ele>
        <time>2021-06-29T17:07:21.631Z</time>
      </trkpt>
      <trkpt lat="50.4959" lon="3.44475">
        <ele>18.090519</ele>
        <time>2021-06-29T17:07:34.241Z</time>
      </trkpt>
      <trkpt lat="50.49562" lon="3.44503">
        <ele>18.182069</ele>
        <time>2021-06-29T17:07:39.303Z</time>
      </trkpt>
      <trkpt lat="50.49544" lon="3.44521">
        <ele>18.151753</ele>
        <time>2021-06-29T17:07:42.378Z</time>
      </trkpt>
      <trkpt lat="50.49491" lon="3.44561">
        <ele>18.068935</ele>
        <time>2021-06-29T17:07:50.729Z</time>
      </trkpt>
      <trkpt lat="50.49477" lon="3.44573">
        <ele>18.046432</ele>
        <time>2021-06-29T17:07:52.736Z</time>
      </trkpt>
      <trkpt lat="50.49426" lon="3.44654">
        <ele>17.959165</ele>
        <time>2021-06-29T17:08:02.678Z</time>
      </trkpt>
      <trkpt lat="50.4942" lon="3.44663">
        <ele>17.971162</ele>
        <time>2021-06-29T17:08:04.162Z</time>
      </trkpt>
      <trkpt lat="50.49368" lon="3.44744">
        <ele>18.077488</ele>
        <time>2021-06-29T17:08:15.031Z</time>
      </trkpt>
      <trkpt lat="50.49361" lon="3.44739">
        <ele>18.088486</ele>
        <time>2021-06-29T17:08:16.213Z</time>
      </trkpt>
      <trkpt lat="50.4934" lon="3.44731">
        <ele>18.119399</ele>
        <time>2021-06-29T17:08:19.599Z</time>
      </trkpt>
      <trkpt lat="50.49336" lon="3.44729">
        <ele>18.125154</ele>
        <time>2021-06-29T17:08:20.403Z</time>
      </trkpt>
      <trkpt lat="50.49301" lon="3.44709">
        <ele>18.17949</ele>
        <time>2021-06-29T17:08:26.683Z</time>
      </trkpt>
      <trkpt lat="50.49286" lon="3.44688">
        <ele>18.208689</ele>
        <time>2021-06-29T17:08:29.946Z</time>
      </trkpt>
      <trkpt lat="50.49254" lon="3.44618">
        <ele>18.312379</ele>
        <time>2021-06-29T17:08:38.746Z</time>
      </trkpt>
      <trkpt lat="50.49237" lon="3.44565">
        <ele>18.38495</ele>
        <time>2021-06-29T17:08:44.600Z</time>
      </trkpt>
      <trkpt lat="50.49227" lon="3.44464">
        <ele>18.508981</ele>
        <time>2021-06-29T17:08:54.454Z</time>
      </trkpt>
      <trkpt lat="50.49219" lon="3.44434">
        <ele>18.549564</ele>
        <time>2021-06-29T17:08:57.698Z</time>
      </trkpt>
      <trkpt lat="50.49167" lon="3.44324">
        <ele>18.906375</ele>
        <time>2021-06-29T17:09:11.195Z</time>
      </trkpt>
      <trkpt lat="50.49138" lon="3.44236">
        <ele>19.168406</ele>
        <time>2021-06-29T17:09:21.639Z</time>
      </trkpt>
      <trkpt lat="50.49109" lon="3.44183">
        <ele>19.421688</ele>
        <time>2021-06-29T17:09:29.705Z</time>
      </trkpt>
      <trkpt lat="50.49043" lon="3.44079">
        <ele>20.328984</ele>
        <time>2021-06-29T17:09:47.465Z</time>
      </trkpt>
      <trkpt lat="50.49034" lon="3.44057">
        <ele>20.490886</ele>
        <time>2021-06-29T17:09:50.697Z</time>
      </trkpt>
      <trkpt lat="50.48998" lon="3.43966">
        <ele>21.098807</ele>
        <time>2021-06-29T17:10:03.649Z</time>
      </trkpt>
      <trkpt lat="50.48981" lon="3.43937">
        <ele>21.20678</ele>
        <time>2021-06-29T17:10:08.245Z</time>
      </trkpt>
      <trkpt lat="50.48953" lon="3.43902">
        <ele>21.363339</ele>
        <time>2021-06-29T17:10:14.834Z</time>
      </trkpt>
      <trkpt lat="50.48944" lon="3.43891">
        <ele>21.415354</ele>
        <time>2021-06-29T17:10:16.908Z</time>
      </trkpt>
      <trkpt lat="50.48918" lon="3.43854">
        <ele>21.56482</ele>
        <time>2021-06-29T17:10:22.555Z</time>
      </trkpt>
      <trkpt lat="50.48907" lon="3.43837">
        <ele>21.634992</ele>
        <time>2021-06-29T17:10:25.038Z</time>
      </trkpt>
      <trkpt lat="50.48882" lon="3.43799">
        <ele>21.786671</ele>
        <time>2021-06-29T17:10:30.116Z</time>
      </trkpt>
      <trkpt lat="50.48863" lon="3.43769">
        <ele>21.77551</ele>
        <time>2021-06-29T17:10:33.843Z</time>
      </trkpt>
      <trkpt lat="50.48851" lon="3.4374">
        <ele>21.682881</ele>
        <time>2021-06-29T17:10:36.955Z</time>
      </trkpt>
      <trkpt lat="50.488" lon="3.4362">
        <ele>21.296514</ele>
        <time>2021-06-29T17:10:49.134Z</time>
      </trkpt>
      <trkpt lat="50.48793" lon="3.43602">
        <ele>21.240118</ele>
        <time>2021-06-29T17:10:50.955Z</time>
      </trkpt>
      <trkpt lat="50.48786" lon="3.43584">
        <ele>21.183274</ele>
        <time>2021-06-29T17:10:52.649Z</time>
      </trkpt>
      <trkpt lat="50.48774" lon="3.4355">
        <ele>21.078809</ele>
        <time>2021-06-29T17:10:55.914Z</time>
      </trkpt>
      <trkpt lat="50.48772" lon="3.4353">
        <ele>21.01623</ele>
        <time>2021-06-29T17:10:57.542Z</time>
      </trkpt>
      <trkpt lat="50.48777" lon="3.43508">
        <ele>20.946791</ele>
        <time>2021-06-29T17:10:59.431Z</time>
      </trkpt>
      <trkpt lat="50.48831" lon="3.43417">
        <ele>20.570028</ele>
        <time>2021-06-29T17:11:09.953Z</time>
      </trkpt>
      <trkpt lat="50.48835" lon="3.43392">
        <ele>20.48882</ele>
        <time>2021-06-29T17:11:12.315Z</time>
      </trkpt>
      <trkpt lat="50.48812" lon="3.43386">
        <ele>20.374475</ele>
        <time>2021-06-29T17:11:15.632Z</time>
      </trkpt>
      <trkpt lat="50.48714" lon="3.43358">
        <ele>19.875824</ele>
        <time>2021-06-29T17:11:28.958Z</time>
      </trkpt>
      <trkpt lat="50.48697" lon="3.4335">
        <ele>19.784243</ele>
        <time>2021-06-29T17:11:31.335Z</time>
      </trkpt>
      <trkpt lat="50.48614" lon="3.43307">
        <ele>19.339569</ele>
        <time>2021-06-29T17:11:42.717Z</time>
      </trkpt>
      <trkpt lat="50.48566" lon="3.43274">
        <ele>19.131622</ele>
        <time>2021-06-29T17:11:49.527Z</time>
      </trkpt>
      <trkpt lat="50.48516" lon="3.43213">
        <ele>18.893414</ele>
        <time>2021-06-29T17:11:57.907Z</time>
      </trkpt>
      <trkpt lat="50.48515" lon="3.43211">
        <ele>18.884645</ele>
        <time>2021-06-29T17:11:58.154Z</time>
      </trkpt>
      <trkpt lat="50.48503" lon="3.4319">
        <ele>18.817084</ele>
        <time>2021-06-29T17:12:00.835Z</time>
      </trkpt>
      <trkpt lat="50.48468" lon="3.43113">
        <ele>18.615545</ele>
        <time>2021-06-29T17:12:09.364Z</time>
      </trkpt>
      <trkpt lat="50.48438" lon="3.43022">
        <ele>18.583172</ele>
        <time>2021-06-29T17:12:18.896Z</time>
      </trkpt>
      <trkpt lat="50.48432" lon="3.43001">
        <ele>18.575688</ele>
        <time>2021-06-29T17:12:21.246Z</time>
      </trkpt>
      <trkpt lat="50.48426" lon="3.42977">
        <ele>18.567526</ele>
        <time>2021-06-29T17:12:23.684Z</time>
      </trkpt>
      <trkpt lat="50.48422" lon="3.42955">
        <ele>18.560314</ele>
        <time>2021-06-29T17:12:25.757Z</time>
      </trkpt>
      <trkpt lat="50.48404" lon="3.42822">
        <ele>18.533222</ele>
        <time>2021-06-29T17:12:38.535Z</time>
      </trkpt>
      <trkpt lat="50.48397" lon="3.4277">
        <ele>18.537739</ele>
        <time>2021-06-29T17:12:43.406Z</time>
      </trkpt>
      <trkpt lat="50.48391" lon="3.42733">
        <ele>18.541044</ele>
        <time>2021-06-29T17:12:46.817Z</time>
      </trkpt>
      <trkpt lat="50.48379" lon="3.42655">
        <ele>18.54792</ele>
        <time>2021-06-29T17:12:54.365Z</time>
      </trkpt>
      <trkpt lat="50.48364" lon="3.42603">
        <ele>18.552807</ele>
        <time>2021-06-29T17:13:00.073Z</time>
      </trkpt>
      <trkpt lat="50.48331" lon="3.42556">
        <ele>18.718226</ele>
        <time>2021-06-29T17:13:07.095Z</time>
      </trkpt>
      <trkpt lat="50.48298" lon="3.42533">
        <ele>18.888399</ele>
        <time>2021-06-29T17:13:13.122Z</time>
      </trkpt>
      <trkpt lat="50.48265" lon="3.42517">
        <ele>19.052771</ele>
        <time>2021-06-29T17:13:19.069Z</time>
      </trkpt>
      <trkpt lat="50.48243" lon="3.4251">
        <ele>19.157292</ele>
        <time>2021-06-29T17:13:22.918Z</time>
      </trkpt>
      <trkpt lat="50.48275" lon="3.42268">
        <ele>19.924743</ele>
        <time>2021-06-29T17:13:50.109Z</time>
      </trkpt>
      <trkpt lat="50.48282" lon="3.42212">
        <ele>20.10286</ele>
        <time>2021-06-29T17:13:55.984Z</time>
      </trkpt>
      <trkpt lat="50.48281" lon="3.42171">
        <ele>20.234913</ele>
        <time>2021-06-29T17:14:00.291Z</time>
      </trkpt>
      <trkpt lat="50.4827" lon="3.42108">
        <ele>20.345386</ele>
        <time>2021-06-29T17:14:07.022Z</time>
      </trkpt>
      <trkpt lat="50.48267" lon="3.42088">
        <ele>20.37001</ele>
        <time>2021-06-29T17:14:09.153Z</time>
      </trkpt>
      <trkpt lat="50.48265" lon="3.42058">
        <ele>20.404605</ele>
        <time>2021-06-29T17:14:12.170Z</time>
      </trkpt>
      <trkpt lat="50.48277" lon="3.41973">
        <ele>20.506262</ele>
        <time>2021-06-29T17:14:20.947Z</time>
      </trkpt>
      <trkpt lat="50.48335" lon="3.41557">
        <ele>20.674151</ele>
        <time>2021-06-29T17:15:01.600Z</time>
      </trkpt>
      <trkpt lat="50.48361" lon="3.41323">
        <ele>20.610854</ele>
        <time>2021-06-29T17:15:24.040Z</time>
      </trkpt>
      <trkpt lat="50.48367" lon="3.4127">
        <ele>20.417661</ele>
        <time>2021-06-29T17:15:28.753Z</time>
      </trkpt>
      <trkpt lat="50.48315" lon="3.41233">
        <ele>20.087184</ele>
        <time>2021-06-29T17:15:36.475Z</time>
      </trkpt>
      <trkpt lat="50.48216" lon="3.41154">
        <ele>19.433304</ele>
        <time>2021-06-29T17:15:50.401Z</time>
      </trkpt>
      <trkpt lat="50.48168" lon="3.41138">
        <ele>19.103707</ele>
        <time>2021-06-29T17:15:56.422Z</time>
      </trkpt>
      <trkpt lat="50.48073" lon="3.41064">
        <ele>18.383049</ele>
        <time>2021-06-29T17:16:10.159Z</time>
      </trkpt>
      <trkpt lat="50.47954" lon="3.40965">
        <ele>18.007981</ele>
        <time>2021-06-29T17:16:29.010Z</time>
      </trkpt>
      <trkpt lat="50.47935" lon="3.40945">
        <ele>17.945442</ele>
        <time>2021-06-29T17:16:32.233Z</time>
      </trkpt>
      <trkpt lat="50.47904" lon="3.40903">
        <ele>17.859278</ele>
        <time>2021-06-29T17:16:38.073Z</time>
      </trkpt>
      <trkpt lat="50.47888" lon="3.40869">
        <ele>17.823471</ele>
        <time>2021-06-29T17:16:42.004Z</time>
      </trkpt>
      <trkpt lat="50.47871" lon="3.40816">
        <ele>17.774658</ele>
        <time>2021-06-29T17:16:47.356Z</time>
      </trkpt>
      <trkpt lat="50.47867" lon="3.408">
        <ele>17.760322</ele>
        <time>2021-06-29T17:16:48.951Z</time>
      </trkpt>
      <trkpt lat="50.47856" lon="3.40762">
        <ele>17.725629</ele>
        <time>2021-06-29T17:16:52.705Z</time>
      </trkpt>
      <trkpt lat="50.47765" lon="3.40417">
        <ele>17.519761</ele>
        <time>2021-06-29T17:17:27.280Z</time>
      </trkpt>
      <trkpt lat="50.47744" lon="3.40344">
        <ele>17.499695</ele>
        <time>2021-06-29T17:17:34.946Z</time>
      </trkpt>
      <trkpt lat="50.47733" lon="3.40307">
        <ele>17.489849</ele>
        <time>2021-06-29T17:17:38.805Z</time>
      </trkpt>
      <trkpt lat="50.47729" lon="3.40294">
        <ele>17.486528</ele>
        <time>2021-06-29T17:17:40.118Z</time>
      </trkpt>
      <trkpt lat="50.47707" lon="3.40255">
        <ele>17.473865</ele>
        <time>2021-06-29T17:17:45.101Z</time>
      </trkpt>
      <trkpt lat="50.47702" lon="3.40246">
        <ele>17.470878</ele>
        <time>2021-06-29T17:17:46.267Z</time>
      </trkpt>
      <trkpt lat="50.47697" lon="3.4024">
        <ele>17.468787</ele>
        <time>2021-06-29T17:17:47.016Z</time>
      </trkpt>
      <trkpt lat="50.47655" lon="3.4018">
        <ele>17.443411</ele>
        <time>2021-06-29T17:17:55.472Z</time>
      </trkpt>
      <trkpt lat="50.47651" lon="3.40175">
        <ele>17.438945</ele>
        <time>2021-06-29T17:17:56.155Z</time>
      </trkpt>
      <trkpt lat="50.47603" lon="3.40105">
        <ele>17.380943</ele>
        <time>2021-06-29T17:18:05.258Z</time>
      </trkpt>
      <trkpt lat="50.47533" lon="3.40017">
        <ele>17.301376</ele>
        <time>2021-06-29T17:18:18.297Z</time>
      </trkpt>
      <trkpt lat="50.47497" lon="3.39983">
        <ele>17.410818</ele>
        <time>2021-06-29T17:18:24.909Z</time>
      </trkpt>
      <trkpt lat="50.47487" lon="3.39974">
        <ele>17.458343</ele>
        <time>2021-06-29T17:18:26.723Z</time>
      </trkpt>
      <trkpt lat="50.47446" lon="3.39936">
        <ele>17.646888</ele>
        <time>2021-06-29T17:18:34.388Z</time>
      </trkpt>
      <trkpt lat="50.4741" lon="3.39903">
        <ele>17.815747</ele>
        <time>2021-06-29T17:18:41.409Z</time>
      </trkpt>
      <trkpt lat="50.47386" lon="3.39879">
        <ele>17.928723</ele>
        <time>2021-06-29T17:18:46.173Z</time>
      </trkpt>
      <trkpt lat="50.47365" lon="3.39855">
        <ele>18.048956</ele>
        <time>2021-06-29T17:18:50.625Z</time>
      </trkpt>
      <trkpt lat="50.47325" lon="3.39806">
        <ele>18.409161</ele>
        <time>2021-06-29T17:18:59.813Z</time>
      </trkpt>
      <trkpt lat="50.47183" lon="3.39634">
        <ele>19.512198</ele>
        <time>2021-06-29T17:19:31.812Z</time>
      </trkpt>
      <trkpt lat="50.47176" lon="3.39626">
        <ele>19.544698</ele>
        <time>2021-06-29T17:19:33.204Z</time>
      </trkpt>
      <trkpt lat="50.47146" lon="3.39592">
        <ele>19.690184</ele>
        <time>2021-06-29T17:19:39.385Z</time>
      </trkpt>
      <trkpt lat="50.47131" lon="3.39575">
        <ele>19.762004</ele>
        <time>2021-06-29T17:19:42.392Z</time>
      </trkpt>
      <trkpt lat="50.47116" lon="3.39559">
        <ele>19.831056</ele>
        <time>2021-06-29T17:19:45.191Z</time>
      </trkpt>
      <trkpt lat="50.47074" lon="3.39512">
        <ele>19.972231</ele>
        <time>2021-06-29T17:19:52.992Z</time>
      </trkpt>
      <trkpt lat="50.47082" lon="3.39468">
        <ele>19.903182</ele>
        <time>2021-06-29T17:19:58.773Z</time>
      </trkpt>
      <trkpt lat="50.47083" lon="3.39461">
        <ele>19.892111</ele>
        <time>2021-06-29T17:19:59.682Z</time>
      </trkpt>
      <trkpt lat="50.47091" lon="3.39397">
        <ele>19.793047</ele>
        <time>2021-06-29T17:20:07.700Z</time>
      </trkpt>
      <trkpt lat="50.47094" lon="3.3938">
        <ele>19.766411</ele>
        <time>2021-06-29T17:20:09.834Z</time>
      </trkpt>
      <trkpt lat="50.47101" lon="3.3934">
        <ele>19.702718</ele>
        <time>2021-06-29T17:20:14.753Z</time>
      </trkpt>
      <trkpt lat="50.47115" lon="3.39281">
        <ele>19.6078</ele>
        <time>2021-06-29T17:20:22.249Z</time>
      </trkpt>
      <trkpt lat="50.47144" lon="3.39193">
        <ele>19.532756</ele>
        <time>2021-06-29T17:20:34.316Z</time>
      </trkpt>
      <trkpt lat="50.47176" lon="3.39033">
        <ele>19.452803</ele>
        <time>2021-06-29T17:20:55.896Z</time>
      </trkpt>
      <trkpt lat="50.47192" lon="3.38981">
        <ele>19.433678</ele>
        <time>2021-06-29T17:21:03.673Z</time>
      </trkpt>
      <trkpt lat="50.47216" lon="3.3892">
        <ele>19.440912</ele>
        <time>2021-06-29T17:21:13.024Z</time>
      </trkpt>
      <trkpt lat="50.47272" lon="3.38828">
        <ele>19.453824</ele>
        <time>2021-06-29T17:21:29.527Z</time>
      </trkpt>
      <trkpt lat="50.47282" lon="3.38802">
        <ele>19.45691</ele>
        <time>2021-06-29T17:21:33.504Z</time>
      </trkpt>
      <trkpt lat="50.47288" lon="3.38767">
        <ele>19.460581</ele>
        <time>2021-06-29T17:21:38.053Z</time>
      </trkpt>
      <trkpt lat="50.47295" lon="3.38732">
        <ele>19.40775</ele>
        <time>2021-06-29T17:21:42.838Z</time>
      </trkpt>
      <trkpt lat="50.47357" lon="3.38496">
        <ele>19.02099</ele>
        <time>2021-06-29T17:22:14.055Z</time>
      </trkpt>
      <trkpt lat="50.47358" lon="3.38493">
        <ele>19.017319</ele>
        <time>2021-06-29T17:22:14.358Z</time>
      </trkpt>
      <trkpt lat="50.4736" lon="3.38488">
        <ele>19.008789</ele>
        <time>2021-06-29T17:22:15.062Z</time>
      </trkpt>
      <trkpt lat="50.47437" lon="3.38201">
        <ele>18.634212</ele>
        <time>2021-06-29T17:22:53.622Z</time>
      </trkpt>
      <trkpt lat="50.47586" lon="3.37645">
        <ele>19.104854</ele>
        <time>2021-06-29T17:24:13.880Z</time>
      </trkpt>
      <trkpt lat="50.47606" lon="3.37568">
        <ele>19.191017</ele>
        <time>2021-06-29T17:24:24.886Z</time>
      </trkpt>
      <trkpt lat="50.47611" lon="3.37549">
        <ele>19.21286</ele>
        <time>2021-06-29T17:24:27.652Z</time>
      </trkpt>
      <trkpt lat="50.47619" lon="3.37534">
        <ele>19.231984</ele>
        <time>2021-06-29T17:24:30.096Z</time>
      </trkpt>
      <trkpt lat="50.47622" lon="3.37529">
        <ele>19.239565</ele>
        <time>2021-06-29T17:24:31.065Z</time>
      </trkpt>
      <trkpt lat="50.47627" lon="3.3752">
        <ele>19.252364</ele>
        <time>2021-06-29T17:24:32.728Z</time>
      </trkpt>
      <trkpt lat="50.47664" lon="3.37496">
        <ele>19.322669</ele>
        <time>2021-06-29T17:24:41.058Z</time>
      </trkpt>
      <trkpt lat="50.47705" lon="3.37474">
        <ele>19.460336</ele>
        <time>2021-06-29T17:24:50.192Z</time>
      </trkpt>
      <trkpt lat="50.4784" lon="3.37402">
        <ele>19.918243</ele>
        <time>2021-06-29T17:25:20.791Z</time>
      </trkpt>
      <trkpt lat="50.47871" lon="3.37382">
        <ele>20.063868</ele>
        <time>2021-06-29T17:25:28.334Z</time>
      </trkpt>
      <trkpt lat="50.47896" lon="3.37358">
        <ele>20.18824</ele>
        <time>2021-06-29T17:25:34.791Z</time>
      </trkpt>
      <trkpt lat="50.47943" lon="3.37285">
        <ele>20.471176</ele>
        <time>2021-06-29T17:25:49.462Z</time>
      </trkpt>
      <trkpt lat="50.4804" lon="3.37082">
        <ele>20.957409</ele>
        <time>2021-06-29T17:26:24.591Z</time>
      </trkpt>
      <trkpt lat="50.48069" lon="3.3701">
        <ele>21.09697</ele>
        <time>2021-06-29T17:26:35.887Z</time>
      </trkpt>
      <trkpt lat="50.48117" lon="3.3686">
        <ele>20.874328</ele>
        <time>2021-06-29T17:26:56.948Z</time>
      </trkpt>
      <trkpt lat="50.48132" lon="3.36793">
        <ele>20.770067</ele>
        <time>2021-06-29T17:27:05.397Z</time>
      </trkpt>
      <trkpt lat="50.48143" lon="3.36713">
        <ele>20.661688</ele>
        <time>2021-06-29T17:27:15.354Z</time>
      </trkpt>
      <trkpt lat="50.48151" lon="3.36663">
        <ele>20.6102</ele>
        <time>2021-06-29T17:27:21.635Z</time>
      </trkpt>
      <trkpt lat="50.48161" lon="3.36588">
        <ele>20.534213</ele>
        <time>2021-06-29T17:27:31.013Z</time>
      </trkpt>
      <trkpt lat="50.48173" lon="3.36555">
        <ele>20.496686</ele>
        <time>2021-06-29T17:27:35.674Z</time>
      </trkpt>
      <trkpt lat="50.48272" lon="3.36423">
        <ele>20.849128</ele>
        <time>2021-06-29T17:28:02.831Z</time>
      </trkpt>
      <trkpt lat="50.48373" lon="3.36241">
        <ele>21.916797</ele>
        <time>2021-06-29T17:28:39.322Z</time>
      </trkpt>
      <trkpt lat="50.48379" lon="3.36227">
        <ele>22.022123</ele>
        <time>2021-06-29T17:28:42.254Z</time>
      </trkpt>
      <trkpt lat="50.48385" lon="3.36214">
        <ele>22.110443</ele>
        <time>2021-06-29T17:28:44.229Z</time>
      </trkpt>
      <trkpt lat="50.4841" lon="3.3614">
        <ele>22.60466</ele>
        <time>2021-06-29T17:28:53.946Z</time>
      </trkpt>
      <trkpt lat="50.48415" lon="3.36123">
        <ele>22.710073</ele>
        <time>2021-06-29T17:28:56.360Z</time>
      </trkpt>
      <trkpt lat="50.4844" lon="3.36037">
        <ele>23.220787</ele>
        <time>2021-06-29T17:29:07.235Z</time>
      </trkpt>
      <trkpt lat="50.4844" lon="3.36037">
        <ele>23.220787</ele>
        <time>2021-06-29T17:29:07.251Z</time>
      </trkpt>
      <trkpt lat="50.48476" lon="3.35877">
        <ele>23.88678</ele>
        <time>2021-06-29T17:29:26.099Z</time>
      </trkpt>
      <trkpt lat="50.48577" lon="3.35632">
        <ele>24.810828</ele>
        <time>2021-06-29T17:29:57.154Z</time>
      </trkpt>
      <trkpt lat="50.48588" lon="3.35427">
        <ele>25.456152</ele>
        <time>2021-06-29T17:30:19.140Z</time>
      </trkpt>
      <trkpt lat="50.48591" lon="3.35416">
        <ele>25.494451</ele>
        <time>2021-06-29T17:30:20.506Z</time>
      </trkpt>
      <trkpt lat="50.48597" lon="3.35406">
        <ele>25.541667</ele>
        <time>2021-06-29T17:30:21.999Z</time>
      </trkpt>
      <trkpt lat="50.48642" lon="3.35358">
        <ele>25.824595</ele>
        <time>2021-06-29T17:30:31.021Z</time>
      </trkpt>
      <trkpt lat="50.4868" lon="3.35324">
        <ele>26.041644</ele>
        <time>2021-06-29T17:30:38.712Z</time>
      </trkpt>
      <trkpt lat="50.48709" lon="3.35312">
        <ele>26.171047</ele>
        <time>2021-06-29T17:30:43.723Z</time>
      </trkpt>
      <trkpt lat="50.48733" lon="3.35302">
        <ele>26.277345</ele>
        <time>2021-06-29T17:30:47.941Z</time>
      </trkpt>
      <trkpt lat="50.48779" lon="3.3528">
        <ele>26.482537</ele>
        <time>2021-06-29T17:30:55.715Z</time>
      </trkpt>
      <trkpt lat="50.48816" lon="3.3525">
        <ele>26.661885</ele>
        <time>2021-06-29T17:31:02.639Z</time>
      </trkpt>
      <trkpt lat="50.48826" lon="3.35242">
        <ele>26.713055</ele>
        <time>2021-06-29T17:31:04.565Z</time>
      </trkpt>
      <trkpt lat="50.48891" lon="3.35173">
        <ele>27.076404</ele>
        <time>2021-06-29T17:31:17.149Z</time>
      </trkpt>
      <trkpt lat="50.48898" lon="3.35161">
        <ele>27.126038</ele>
        <time>2021-06-29T17:31:18.856Z</time>
      </trkpt>
      <trkpt lat="50.489" lon="3.35149">
        <ele>27.165002</ele>
        <time>2021-06-29T17:31:20.292Z</time>
      </trkpt>
      <trkpt lat="50.48888" lon="3.35017">
        <ele>27.567404</ele>
        <time>2021-06-29T17:31:34.608Z</time>
      </trkpt>
      <trkpt lat="50.48883" lon="3.34952">
        <ele>27.805955</ele>
        <time>2021-06-29T17:31:41.868Z</time>
      </trkpt>
      <trkpt lat="50.48885" lon="3.34894">
        <ele>28.030364</ele>
        <time>2021-06-29T17:31:48.482Z</time>
      </trkpt>
      <trkpt lat="50.48886" lon="3.34877">
        <ele>28.095733</ele>
        <time>2021-06-29T17:31:50.357Z</time>
      </trkpt>
      <trkpt lat="50.48889" lon="3.3483">
        <ele>28.276939</ele>
        <time>2021-06-29T17:31:55.538Z</time>
      </trkpt>
      <trkpt lat="50.4889" lon="3.34825">
        <ele>28.295169</ele>
        <time>2021-06-29T17:31:56.062Z</time>
      </trkpt>
      <trkpt lat="50.48893" lon="3.34787">
        <ele>28.442231</ele>
        <time>2021-06-29T17:32:00.309Z</time>
      </trkpt>
      <trkpt lat="50.48899" lon="3.34771">
        <ele>28.514245</ele>
        <time>2021-06-29T17:32:02.304Z</time>
      </trkpt>
      <trkpt lat="50.48912" lon="3.3475">
        <ele>28.621781</ele>
        <time>2021-06-29T17:32:05.424Z</time>
      </trkpt>
      <trkpt lat="50.48914" lon="3.34745">
        <ele>28.647382</ele>
        <time>2021-06-29T17:32:06.156Z</time>
      </trkpt>
      <trkpt lat="50.48921" lon="3.3472">
        <ele>28.707709</ele>
        <time>2021-06-29T17:32:09.030Z</time>
      </trkpt>
      <trkpt lat="50.48925" lon="3.34694">
        <ele>28.742969</ele>
        <time>2021-06-29T17:32:11.979Z</time>
      </trkpt>
      <trkpt lat="50.48931" lon="3.3467">
        <ele>28.777345</ele>
        <time>2021-06-29T17:32:14.629Z</time>
      </trkpt>
      <trkpt lat="50.48937" lon="3.34658">
        <ele>28.799091</ele>
        <time>2021-06-29T17:32:16.368Z</time>
      </trkpt>
      <trkpt lat="50.49031" lon="3.34593">
        <ele>29.012933</ele>
        <time>2021-06-29T17:32:31.992Z</time>
      </trkpt>
      <trkpt lat="50.4911" lon="3.34552">
        <ele>29.057607</ele>
        <time>2021-06-29T17:32:44.284Z</time>
      </trkpt>
      <trkpt lat="50.49125" lon="3.34547">
        <ele>29.056918</ele>
        <time>2021-06-29T17:32:46.466Z</time>
      </trkpt>
      <trkpt lat="50.49133" lon="3.34546">
        <ele>29.056529</ele>
        <time>2021-06-29T17:32:47.718Z</time>
      </trkpt>
      <trkpt lat="50.49143" lon="3.34547">
        <ele>29.056069</ele>
        <time>2021-06-29T17:32:49.126Z</time>
      </trkpt>
      <trkpt lat="50.49156" lon="3.34547">
        <ele>29.055448</ele>
        <time>2021-06-29T17:32:51.074Z</time>
      </trkpt>
      <trkpt lat="50.49155" lon="3.34527">
        <ele>29.054838</ele>
        <time>2021-06-29T17:32:53.727Z</time>
      </trkpt>
      <trkpt lat="50.49144" lon="3.34326">
        <ele>28.94625</ele>
        <time>2021-06-29T17:33:19.530Z</time>
      </trkpt>
      <trkpt lat="50.49132" lon="3.34292">
        <ele>28.907589</ele>
        <time>2021-06-29T17:33:24.434Z</time>
      </trkpt>
      <trkpt lat="50.49094" lon="3.34248">
        <ele>28.83421</ele>
        <time>2021-06-29T17:33:33.533Z</time>
      </trkpt>
      <trkpt lat="50.49082" lon="3.34209">
        <ele>28.79073</ele>
        <time>2021-06-29T17:33:38.935Z</time>
      </trkpt>
      <trkpt lat="50.49096" lon="3.34105">
        <ele>28.622365</ele>
        <time>2021-06-29T17:33:52.068Z</time>
      </trkpt>
      <trkpt lat="50.49109" lon="3.34067">
        <ele>28.547459</ele>
        <time>2021-06-29T17:33:57.459Z</time>
      </trkpt>
      <trkpt lat="50.49111" lon="3.3406">
        <ele>28.536328</ele>
        <time>2021-06-29T17:33:58.178Z</time>
      </trkpt>
      <trkpt lat="50.49112" lon="3.34053">
        <ele>28.523724</ele>
        <time>2021-06-29T17:33:59.216Z</time>
      </trkpt>
      <trkpt lat="50.49109" lon="3.34029">
        <ele>28.480871</ele>
        <time>2021-06-29T17:34:02.301Z</time>
      </trkpt>
      <trkpt lat="50.4906" lon="3.3396">
        <ele>28.303828</ele>
        <time>2021-06-29T17:34:14.942Z</time>
      </trkpt>
      <trkpt lat="50.49035" lon="3.33914">
        <ele>28.230712</ele>
        <time>2021-06-29T17:34:22.225Z</time>
      </trkpt>
      <trkpt lat="50.4901" lon="3.33832">
        <ele>28.130181</ele>
        <time>2021-06-29T17:34:33.382Z</time>
      </trkpt>
      <trkpt lat="50.48998" lon="3.33818">
        <ele>28.103594</ele>
        <time>2021-06-29T17:34:36.364Z</time>
      </trkpt>
      <trkpt lat="50.48938" lon="3.33794">
        <ele>27.997075</ele>
        <time>2021-06-29T17:34:48.658Z</time>
      </trkpt>
      <trkpt lat="50.48923" lon="3.33779">
        <ele>27.987609</ele>
        <time>2021-06-29T17:34:52.186Z</time>
      </trkpt>
      <trkpt lat="50.48873" lon="3.33684">
        <ele>28.221999</ele>
        <time>2021-06-29T17:35:08.349Z</time>
      </trkpt>
      <trkpt lat="50.48873" lon="3.33684">
        <ele>28.221999</ele>
        <time>2021-06-29T17:35:08.410Z</time>
      </trkpt>
      <trkpt lat="50.48789" lon="3.33597">
        <ele>28.534858</ele>
        <time>2021-06-29T17:35:30.738Z</time>
      </trkpt>
      <trkpt lat="50.48666" lon="3.33568">
        <ele>29.318111</ele>
        <time>2021-06-29T17:35:59.114Z</time>
      </trkpt>
      <trkpt lat="50.48647" lon="3.33573">
        <ele>29.437406</ele>
        <time>2021-06-29T17:36:03.276Z</time>
      </trkpt>
      <trkpt lat="50.48639" lon="3.33583">
        <ele>29.50196</ele>
        <time>2021-06-29T17:36:05.723Z</time>
      </trkpt>
      <trkpt lat="50.48641" lon="3.33517">
        <ele>29.811079</ele>
        <time>2021-06-29T17:36:15.310Z</time>
      </trkpt>
      <trkpt lat="50.48643" lon="3.33486">
        <ele>29.984389</ele>
        <time>2021-06-29T17:36:19.857Z</time>
      </trkpt>
      <trkpt lat="50.48648" lon="3.33434">
        <ele>30.272477</ele>
        <time>2021-06-29T17:36:27.564Z</time>
      </trkpt>
      <trkpt lat="50.48653" lon="3.33382">
        <ele>30.557304</ele>
        <time>2021-06-29T17:36:35.242Z</time>
      </trkpt>
      <trkpt lat="50.4861" lon="3.33142">
        <ele>32.105356</ele>
        <time>2021-06-29T17:37:14.464Z</time>
      </trkpt>
      <trkpt lat="50.48557" lon="3.32849">
        <ele>33.611762</ele>
        <time>2021-06-29T17:38:01.943Z</time>
      </trkpt>
      <trkpt lat="50.48516" lon="3.32779">
        <ele>33.906531</ele>
        <time>2021-06-29T17:38:14.395Z</time>
      </trkpt>
      <trkpt lat="50.48404" lon="3.32597">
        <ele>33.261977</ele>
        <time>2021-06-29T17:38:43.972Z</time>
      </trkpt>
      <trkpt lat="50.48422" lon="3.32472">
        <ele>32.805634</ele>
        <time>2021-06-29T17:38:58.896Z</time>
      </trkpt>
      <trkpt lat="50.48418" lon="3.32449">
        <ele>32.716245</ele>
        <time>2021-06-29T17:39:01.706Z</time>
      </trkpt>
      <trkpt lat="50.48432" lon="3.32445">
        <ele>32.627922</ele>
        <time>2021-06-29T17:39:03.631Z</time>
      </trkpt>
      <trkpt lat="50.48469" lon="3.32425">
        <ele>32.401711</ele>
        <time>2021-06-29T17:39:08.654Z</time>
      </trkpt>
      <trkpt lat="50.48631" lon="3.32226">
        <ele>31.279332</ele>
        <time>2021-06-29T17:39:35.478Z</time>
      </trkpt>
      <trkpt lat="50.48703" lon="3.32108">
        <ele>30.953831</ele>
        <time>2021-06-29T17:39:49.682Z</time>
      </trkpt>
      <trkpt lat="50.48733" lon="3.32013">
        <ele>30.846487</ele>
        <time>2021-06-29T17:39:59.418Z</time>
      </trkpt>
      <trkpt lat="50.48791" lon="3.31878">
        <ele>30.864514</ele>
        <time>2021-06-29T17:40:15.010Z</time>
      </trkpt>
      <trkpt lat="50.48864" lon="3.31797">
        <ele>31.035306</ele>
        <time>2021-06-29T17:40:29.019Z</time>
      </trkpt>
      <trkpt lat="50.48923" lon="3.31735">
        <ele>31.194236</ele>
        <time>2021-06-29T17:40:40.351Z</time>
      </trkpt>
      <trkpt lat="50.48992" lon="3.31659">
        <ele>31.415458</ele>
        <time>2021-06-29T17:40:53.838Z</time>
      </trkpt>
      <trkpt lat="50.49051" lon="3.31583">
        <ele>31.640826</ele>
        <time>2021-06-29T17:41:06.069Z</time>
      </trkpt>
      <trkpt lat="50.49092" lon="3.31522">
        <ele>31.893965</ele>
        <time>2021-06-29T17:41:15.246Z</time>
      </trkpt>
      <trkpt lat="50.49143" lon="3.31452">
        <ele>32.19749</ele>
        <time>2021-06-29T17:41:26.416Z</time>
      </trkpt>
      <trkpt lat="50.49148" lon="3.31443">
        <ele>32.233225</ele>
        <time>2021-06-29T17:41:27.711Z</time>
      </trkpt>
      <trkpt lat="50.49153" lon="3.31426">
        <ele>32.284691</ele>
        <time>2021-06-29T17:41:29.674Z</time>
      </trkpt>
      <trkpt lat="50.49217" lon="3.30807">
        <ele>34.952091</ele>
        <time>2021-06-29T17:42:40.053Z</time>
      </trkpt>
      <trkpt lat="50.49222" lon="3.30686">
        <ele>35.398319</ele>
        <time>2021-06-29T17:42:53.479Z</time>
      </trkpt>
      <trkpt lat="50.49239" lon="3.30528">
        <ele>35.976033</ele>
        <time>2021-06-29T17:43:10.770Z</time>
      </trkpt>
      <trkpt lat="50.49229" lon="3.29999">
        <ele>37.738159</ele>
        <time>2021-06-29T17:44:07.654Z</time>
      </trkpt>
      <trkpt lat="50.49236" lon="3.29831">
        <ele>38.505708</ele>
        <time>2021-06-29T17:44:26.337Z</time>
      </trkpt>
      <trkpt lat="50.49242" lon="3.29719">
        <ele>39.032791</ele>
        <time>2021-06-29T17:44:39.453Z</time>
      </trkpt>
      <trkpt lat="50.4925" lon="3.29548">
        <ele>39.89847</ele>
        <time>2021-06-29T17:44:59.762Z</time>
      </trkpt>
      <trkpt lat="50.49259" lon="3.29514">
        <ele>40.090149</ele>
        <time>2021-06-29T17:45:04.226Z</time>
      </trkpt>
      <trkpt lat="50.49317" lon="3.29413">
        <ele>40.643929</ele>
        <time>2021-06-29T17:45:18.852Z</time>
      </trkpt>
      <trkpt lat="50.49321" lon="3.29407">
        <ele>40.662459</ele>
        <time>2021-06-29T17:45:20.060Z</time>
      </trkpt>
      <trkpt lat="50.49267" lon="3.29308">
        <ele>40.944976</ele>
        <time>2021-06-29T17:45:33.236Z</time>
      </trkpt>
      <trkpt lat="50.49229" lon="3.29251">
        <ele>41.120794</ele>
        <time>2021-06-29T17:45:41.298Z</time>
      </trkpt>
      <trkpt lat="50.49177" lon="3.29172">
        <ele>41.546293</ele>
        <time>2021-06-29T17:45:52.736Z</time>
      </trkpt>
      <trkpt lat="50.49174" lon="3.29167">
        <ele>41.573981</ele>
        <time>2021-06-29T17:45:53.493Z</time>
      </trkpt>
      <trkpt lat="50.49175" lon="3.2916">
        <ele>41.604137</ele>
        <time>2021-06-29T17:45:54.537Z</time>
      </trkpt>
      <trkpt lat="50.49195" lon="3.291">
        <ele>41.873441</ele>
        <time>2021-06-29T17:46:02.228Z</time>
      </trkpt>
      <trkpt lat="50.49223" lon="3.28981">
        <ele>42.404354</ele>
        <time>2021-06-29T17:46:17.234Z</time>
      </trkpt>
      <trkpt lat="50.49233" lon="3.28939">
        <ele>42.628442</ele>
        <time>2021-06-29T17:46:22.620Z</time>
      </trkpt>
      <trkpt lat="50.49231" lon="3.2892">
        <ele>42.721051</ele>
        <time>2021-06-29T17:46:24.812Z</time>
      </trkpt>
      <trkpt lat="50.49224" lon="3.289">
        <ele>42.832748</ele>
        <time>2021-06-29T17:46:27.325Z</time>
      </trkpt>
      <trkpt lat="50.49209" lon="3.28864">
        <ele>43.052154</ele>
        <time>2021-06-29T17:46:32.468Z</time>
      </trkpt>
      <trkpt lat="50.49195" lon="3.28822">
        <ele>43.286332</ele>
        <time>2021-06-29T17:46:39.456Z</time>
      </trkpt>
      <trkpt lat="50.4918" lon="3.28775">
        <ele>43.546896</ele>
        <time>2021-06-29T17:46:47.132Z</time>
      </trkpt>
      <trkpt lat="50.49149" lon="3.28726">
        <ele>43.759382</ele>
        <time>2021-06-29T17:46:57.032Z</time>
      </trkpt>
      <trkpt lat="50.49136" lon="3.28706">
        <ele>43.811407</ele>
        <time>2021-06-29T17:47:00.936Z</time>
      </trkpt>
      <trkpt lat="50.49148" lon="3.28671">
        <ele>43.883687</ele>
        <time>2021-06-29T17:47:05.000Z</time>
      </trkpt>
      <trkpt lat="50.49166" lon="3.28618">
        <ele>43.99221</ele>
        <time>2021-06-29T17:47:10.904Z</time>
      </trkpt>
      <trkpt lat="50.49175" lon="3.28579">
        <ele>44.066803</ele>
        <time>2021-06-29T17:47:14.975Z</time>
      </trkpt>
      <trkpt lat="50.49195" lon="3.28434">
        <ele>44.26849</ele>
        <time>2021-06-29T17:47:29.612Z</time>
      </trkpt>
      <trkpt lat="50.492" lon="3.28364">
        <ele>44.334979</ele>
        <time>2021-06-29T17:47:36.389Z</time>
      </trkpt>
      <trkpt lat="50.49199" lon="3.28278">
        <ele>44.416535</ele>
        <time>2021-06-29T17:47:44.794Z</time>
      </trkpt>
      <trkpt lat="50.49161" lon="3.27883">
        <ele>44.839159</ele>
        <time>2021-06-29T17:48:24.786Z</time>
      </trkpt>
      <trkpt lat="50.49155" lon="3.27846">
        <ele>44.848342</ele>
        <time>2021-06-29T17:48:28.641Z</time>
      </trkpt>
      <trkpt lat="50.49143" lon="3.27809">
        <ele>44.858018</ele>
        <time>2021-06-29T17:48:32.674Z</time>
      </trkpt>
      <trkpt lat="50.49035" lon="3.27626">
        <ele>44.602644</ele>
        <time>2021-06-29T17:48:55.660Z</time>
      </trkpt>
      <trkpt lat="50.48992" lon="3.27546">
        <ele>44.339631</ele>
        <time>2021-06-29T17:49:04.713Z</time>
      </trkpt>
      <trkpt lat="50.48947" lon="3.27374">
        <ele>43.323127</ele>
        <time>2021-06-29T17:49:19.400Z</time>
      </trkpt>
      <trkpt lat="50.48944" lon="3.27338">
        <ele>43.068409</ele>
        <time>2021-06-29T17:49:22.224Z</time>
      </trkpt>
      <trkpt lat="50.48947" lon="3.27309">
        <ele>42.86016</ele>
        <time>2021-06-29T17:49:24.440Z</time>
      </trkpt>
      <trkpt lat="50.48929" lon="3.27302">
        <ele>42.657152</ele>
        <time>2021-06-29T17:49:26.662Z</time>
      </trkpt>
      <trkpt lat="50.48923" lon="3.27281">
        <ele>42.493383</ele>
        <time>2021-06-29T17:49:28.368Z</time>
      </trkpt>
      <trkpt lat="50.48911" lon="3.2725">
        <ele>42.238056</ele>
        <time>2021-06-29T17:49:31.121Z</time>
      </trkpt>
      <trkpt lat="50.48859" lon="3.27169">
        <ele>41.167249</ele>
        <time>2021-06-29T17:49:39.573Z</time>
      </trkpt>
      <trkpt lat="50.48833" lon="3.27106">
        <ele>40.460289</ele>
        <time>2021-06-29T17:49:44.960Z</time>
      </trkpt>
      <trkpt lat="50.48813" lon="3.26975">
        <ele>39.216785</ele>
        <time>2021-06-29T17:49:54.989Z</time>
      </trkpt>
      <trkpt lat="50.48807" lon="3.2684">
        <ele>38.058886</ele>
        <time>2021-06-29T17:50:04.972Z</time>
      </trkpt>
      <trkpt lat="50.48772" lon="3.26624">
        <ele>36.376912</ele>
        <time>2021-06-29T17:50:21.844Z</time>
      </trkpt>
      <trkpt lat="50.48752" lon="3.26567">
        <ele>35.953739</ele>
        <time>2021-06-29T17:50:26.818Z</time>
      </trkpt>
      <trkpt lat="50.48699" lon="3.26471">
        <ele>35.281073</ele>
        <time>2021-06-29T17:50:37.053Z</time>
      </trkpt>
      <trkpt lat="50.48699" lon="3.26471">
        <ele>35.281073</ele>
        <time>2021-06-29T17:50:37.058Z</time>
      </trkpt>
      <trkpt lat="50.48691" lon="3.26438">
        <ele>35.315581</ele>
        <time>2021-06-29T17:50:40.146Z</time>
      </trkpt>
      <trkpt lat="50.48686" lon="3.26406">
        <ele>35.348567</ele>
        <time>2021-06-29T17:50:42.969Z</time>
      </trkpt>
      <trkpt lat="50.4868" lon="3.2641">
        <ele>35.359541</ele>
        <time>2021-06-29T17:50:44.428Z</time>
      </trkpt>
      <trkpt lat="50.48629" lon="3.26477">
        <ele>35.463747</ele>
        <time>2021-06-29T17:50:58.250Z</time>
      </trkpt>
      <trkpt lat="50.48557" lon="3.26613">
        <ele>36.448282</ele>
        <time>2021-06-29T17:51:25.370Z</time>
      </trkpt>
      <trkpt lat="50.48498" lon="3.2675">
        <ele>37.974952</ele>
        <time>2021-06-29T17:51:53.848Z</time>
      </trkpt>
      <trkpt lat="50.4846" lon="3.26871">
        <ele>39.331552</ele>
        <time>2021-06-29T17:52:17.720Z</time>
      </trkpt>
      <trkpt lat="50.48447" lon="3.26908">
        <ele>39.76124</ele>
        <time>2021-06-29T17:52:25.096Z</time>
      </trkpt>
      <trkpt lat="50.48425" lon="3.26973">
        <ele>40.507939</ele>
        <time>2021-06-29T17:52:37.536Z</time>
      </trkpt>
      <trkpt lat="50.48357" lon="3.27138">
        <ele>41.491538</ele>
        <time>2021-06-29T17:53:08.550Z</time>
      </trkpt>
      <trkpt lat="50.48318" lon="3.27215">
        <ele>41.803759</ele>
        <time>2021-06-29T17:53:21.277Z</time>
      </trkpt>
      <trkpt lat="50.48308" lon="3.27235">
        <ele>41.885299</ele>
        <time>2021-06-29T17:53:24.601Z</time>
      </trkpt>
      <trkpt lat="50.48291" lon="3.27218">
        <ele>41.78048</ele>
        <time>2021-06-29T17:53:27.284Z</time>
      </trkpt>
      <trkpt lat="50.48259" lon="3.27181">
        <ele>41.312352</ele>
        <time>2021-06-29T17:53:32.346Z</time>
      </trkpt>
      <trkpt lat="50.48252" lon="3.27168">
        <ele>41.179342</ele>
        <time>2021-06-29T17:53:33.813Z</time>
      </trkpt>
      <trkpt lat="50.48244" lon="3.27134">
        <ele>40.905729</ele>
        <time>2021-06-29T17:53:36.531Z</time>
      </trkpt>
      <trkpt lat="50.48204" lon="3.27047">
        <ele>40.096227</ele>
        <time>2021-06-29T17:53:44.375Z</time>
      </trkpt>
      <trkpt lat="50.48157" lon="3.26998">
        <ele>39.134411</ele>
        <time>2021-06-29T17:53:50.718Z</time>
      </trkpt>
      <trkpt lat="50.48145" lon="3.26978">
        <ele>38.77107</ele>
        <time>2021-06-29T17:53:52.618Z</time>
      </trkpt>
      <trkpt lat="50.48128" lon="3.26931">
        <ele>38.050074</ele>
        <time>2021-06-29T17:53:56.367Z</time>
      </trkpt>
      <trkpt lat="50.48055" lon="3.26648">
        <ele>33.909737</ele>
        <time>2021-06-29T17:54:17.352Z</time>
      </trkpt>
      <trkpt lat="50.4802" lon="3.2654">
        <ele>32.259326</ele>
        <time>2021-06-29T17:54:25.722Z</time>
      </trkpt>
      <trkpt lat="50.47996" lon="3.26343">
        <ele>30.627738</ele>
        <time>2021-06-29T17:54:40.332Z</time>
      </trkpt>
      <trkpt lat="50.47997" lon="3.26274">
        <ele>30.079148</ele>
        <time>2021-06-29T17:54:46.009Z</time>
      </trkpt>
      <trkpt lat="50.47993" lon="3.26256">
        <ele>29.926103</ele>
        <time>2021-06-29T17:54:47.544Z</time>
      </trkpt>
      <trkpt lat="50.4798" lon="3.26246">
        <ele>29.9784</ele>
        <time>2021-06-29T17:54:49.800Z</time>
      </trkpt>
      <trkpt lat="50.47951" lon="3.26237">
        <ele>30.139607</ele>
        <time>2021-06-29T17:54:54.191Z</time>
      </trkpt>
      <trkpt lat="50.47891" lon="3.26204">
        <ele>30.481435</ele>
        <time>2021-06-29T17:55:04.649Z</time>
      </trkpt>
      <trkpt lat="50.47871" lon="3.26204">
        <ele>30.589596</ele>
        <time>2021-06-29T17:55:08.591Z</time>
      </trkpt>
      <trkpt lat="50.47871" lon="3.26271">
        <ele>30.820345</ele>
        <time>2021-06-29T17:55:16.777Z</time>
      </trkpt>
      <trkpt lat="50.47857" lon="3.26473">
        <ele>32.209867</ele>
        <time>2021-06-29T17:55:42.823Z</time>
      </trkpt>
      <trkpt lat="50.47803" lon="3.26782">
        <ele>33.814373</ele>
        <time>2021-06-29T17:56:20.152Z</time>
      </trkpt>
      <trkpt lat="50.47784" lon="3.26774">
        <ele>33.939831</ele>
        <time>2021-06-29T17:56:23.121Z</time>
      </trkpt>
      <trkpt lat="50.47754" lon="3.26763">
        <ele>34.00225</ele>
        <time>2021-06-29T17:56:27.717Z</time>
      </trkpt>
      <trkpt lat="50.47735" lon="3.26764">
        <ele>33.922221</ele>
        <time>2021-06-29T17:56:30.467Z</time>
      </trkpt>
      <trkpt lat="50.47681" lon="3.2681">
        <ele>33.657381</ele>
        <time>2021-06-29T17:56:38.850Z</time>
      </trkpt>
      <trkpt lat="50.47647" lon="3.26827">
        <ele>33.505871</ele>
        <time>2021-06-29T17:56:43.391Z</time>
      </trkpt>
      <trkpt lat="50.47544" lon="3.26827">
        <ele>32.835945</ele>
        <time>2021-06-29T17:56:56.344Z</time>
      </trkpt>
      <trkpt lat="50.47515" lon="3.26804">
        <ele>32.545432</ele>
        <time>2021-06-29T17:57:00.493Z</time>
      </trkpt>
      <trkpt lat="50.47467" lon="3.26739">
        <ele>31.994686</ele>
        <time>2021-06-29T17:57:08.370Z</time>
      </trkpt>
      <trkpt lat="50.4743" lon="3.26726">
        <ele>31.660327</ele>
        <time>2021-06-29T17:57:12.964Z</time>
      </trkpt>
      <trkpt lat="50.47376" lon="3.2669">
        <ele>31.107251</ele>
        <time>2021-06-29T17:57:20.142Z</time>
      </trkpt>
      <trkpt lat="50.47329" lon="3.26673">
        <ele>30.65598</ele>
        <time>2021-06-29T17:57:26.066Z</time>
      </trkpt>
      <trkpt lat="50.47307" lon="3.26663">
        <ele>30.4402</ele>
        <time>2021-06-29T17:57:28.927Z</time>
      </trkpt>
      <trkpt lat="50.47288" lon="3.26655">
        <ele>30.25806</ele>
        <time>2021-06-29T17:57:31.344Z</time>
      </trkpt>
      <trkpt lat="50.47265" lon="3.26647">
        <ele>30.036386</ele>
        <time>2021-06-29T17:57:34.381Z</time>
      </trkpt>
      <trkpt lat="50.4725" lon="3.26653">
        <ele>29.981178</ele>
        <time>2021-06-29T17:57:36.233Z</time>
      </trkpt>
      <trkpt lat="50.47241" lon="3.26669">
        <ele>29.932677</ele>
        <time>2021-06-29T17:57:38.041Z</time>
      </trkpt>
      <trkpt lat="50.4722" lon="3.26753">
        <ele>29.732017</ele>
        <time>2021-06-29T17:57:45.558Z</time>
      </trkpt>
      <trkpt lat="50.4721" lon="3.26773">
        <ele>29.675649</ele>
        <time>2021-06-29T17:57:47.757Z</time>
      </trkpt>
      <trkpt lat="50.47134" lon="3.26866">
        <ele>29.388966</ele>
        <time>2021-06-29T17:58:01.976Z</time>
      </trkpt>
      <trkpt lat="50.47082" lon="3.26896">
        <ele>29.34768</ele>
        <time>2021-06-29T17:58:10.247Z</time>
      </trkpt>
      <trkpt lat="50.47076" lon="3.26915">
        <ele>29.337966</ele>
        <time>2021-06-29T17:58:12.271Z</time>
      </trkpt>
      <trkpt lat="50.4707" lon="3.27013">
        <ele>29.29077</ele>
        <time>2021-06-29T17:58:21.475Z</time>
      </trkpt>
      <trkpt lat="50.47068" lon="3.27036">
        <ele>29.279888</ele>
        <time>2021-06-29T17:58:23.660Z</time>
      </trkpt>
      <trkpt lat="50.47063" lon="3.27049">
        <ele>29.272494</ele>
        <time>2021-06-29T17:58:25.507Z</time>
      </trkpt>
      <trkpt lat="50.4704" lon="3.27073">
        <ele>29.133086</ele>
        <time>2021-06-29T17:58:30.801Z</time>
      </trkpt>
      <trkpt lat="50.46971" lon="3.27093">
        <ele>28.681127</ele>
        <time>2021-06-29T17:58:43.764Z</time>
      </trkpt>
      <trkpt lat="50.46921" lon="3.27138">
        <ele>28.308662</ele>
        <time>2021-06-29T17:58:53.968Z</time>
      </trkpt>
      <trkpt lat="50.469" lon="3.27137">
        <ele>28.168884</ele>
        <time>2021-06-29T17:58:57.751Z</time>
      </trkpt>
      <trkpt lat="50.46849" lon="3.27118">
        <ele>27.67986</ele>
        <time>2021-06-29T17:59:06.848Z</time>
      </trkpt>
      <trkpt lat="50.46819" lon="3.27119">
        <ele>27.37688</ele>
        <time>2021-06-29T17:59:12.099Z</time>
      </trkpt>
      <trkpt lat="50.46794" lon="3.27131">
        <ele>27.110687</ele>
        <time>2021-06-29T17:59:16.594Z</time>
      </trkpt>
      <trkpt lat="50.46691" lon="3.27222">
        <ele>26.076782</ele>
        <time>2021-06-29T17:59:37.104Z</time>
      </trkpt>
      <trkpt lat="50.46686" lon="3.27229">
        <ele>26.040018</ele>
        <time>2021-06-29T17:59:38.154Z</time>
      </trkpt>
      <trkpt lat="50.46681" lon="3.27249">
        <ele>25.960494</ele>
        <time>2021-06-29T17:59:40.580Z</time>
      </trkpt>
      <trkpt lat="50.46671" lon="3.27287">
        <ele>25.806397</ele>
        <time>2021-06-29T17:59:45.373Z</time>
      </trkpt>
      <trkpt lat="50.46669" lon="3.27294">
        <ele>25.778334</ele>
        <time>2021-06-29T17:59:46.199Z</time>
      </trkpt>
      <trkpt lat="50.46668" lon="3.27371">
        <ele>25.490161</ele>
        <time>2021-06-29T17:59:55.437Z</time>
      </trkpt>
      <trkpt lat="50.46676" lon="3.27437">
        <ele>25.244802</ele>
        <time>2021-06-29T18:00:03.610Z</time>
      </trkpt>
      <trkpt lat="50.467" lon="3.2752">
        <ele>25.391338</ele>
        <time>2021-06-29T18:00:15.113Z</time>
      </trkpt>
      <trkpt lat="50.46753" lon="3.27766">
        <ele>25.970526</ele>
        <time>2021-06-29T18:00:51.981Z</time>
      </trkpt>
      <trkpt lat="50.46755" lon="3.27792">
        <ele>26.071778</ele>
        <time>2021-06-29T18:00:55.797Z</time>
      </trkpt>
      <trkpt lat="50.46743" lon="3.27846">
        <ele>26.297761</ele>
        <time>2021-06-29T18:01:04.297Z</time>
      </trkpt>
      <trkpt lat="50.46745" lon="3.27871">
        <ele>26.394093</ele>
        <time>2021-06-29T18:01:07.900Z</time>
      </trkpt>
      <trkpt lat="50.46773" lon="3.27951">
        <ele>26.753717</ele>
        <time>2021-06-29T18:01:21.300Z</time>
      </trkpt>
      <trkpt lat="50.46775" lon="3.28077">
        <ele>27.030952</ele>
        <time>2021-06-29T18:01:39.312Z</time>
      </trkpt>
      <trkpt lat="50.46813" lon="3.28267">
        <ele>27.314942</ele>
        <time>2021-06-29T18:02:06.007Z</time>
      </trkpt>
      <trkpt lat="50.46835" lon="3.28518">
        <ele>26.834255</ele>
        <time>2021-06-29T18:02:36.517Z</time>
      </trkpt>
      <trkpt lat="50.46831" lon="3.28595">
        <ele>26.532922</ele>
        <time>2021-06-29T18:02:45.602Z</time>
      </trkpt>
      <trkpt lat="50.4683" lon="3.28606">
        <ele>26.490694</ele>
        <time>2021-06-29T18:02:46.739Z</time>
      </trkpt>
      <trkpt lat="50.4682" lon="3.28733">
        <ele>25.990943</ele>
        <time>2021-06-29T18:03:01.691Z</time>
      </trkpt>
      <trkpt lat="50.46805" lon="3.28809">
        <ele>25.675505</ele>
        <time>2021-06-29T18:03:11.008Z</time>
      </trkpt>
      <trkpt lat="50.46807" lon="3.289">
        <ele>25.285173</ele>
        <time>2021-06-29T18:03:21.380Z</time>
      </trkpt>
      <trkpt lat="50.46792" lon="3.29011">
        <ele>24.792453</ele>
        <time>2021-06-29T18:03:34.620Z</time>
      </trkpt>
      <trkpt lat="50.46789" lon="3.29022">
        <ele>24.742726</ele>
        <time>2021-06-29T18:03:35.967Z</time>
      </trkpt>
      <trkpt lat="50.46783" lon="3.29042">
        <ele>24.650406</ele>
        <time>2021-06-29T18:03:38.427Z</time>
      </trkpt>
      <trkpt lat="50.4678" lon="3.29065">
        <ele>24.548095</ele>
        <time>2021-06-29T18:03:41.188Z</time>
      </trkpt>
      <trkpt lat="50.46775" lon="3.29067">
        <ele>24.509656</ele>
        <time>2021-06-29T18:03:41.942Z</time>
      </trkpt>
      <trkpt lat="50.46752" lon="3.29075">
        <ele>24.364246</ele>
        <time>2021-06-29T18:03:44.965Z</time>
      </trkpt>
      <trkpt lat="50.46724" lon="3.29072">
        <ele>24.190544</ele>
        <time>2021-06-29T18:03:48.606Z</time>
      </trkpt>
      <trkpt lat="50.46694" lon="3.29051">
        <ele>23.989094</ele>
        <time>2021-06-29T18:03:52.831Z</time>
      </trkpt>
      <trkpt lat="50.46587" lon="3.28968">
        <ele>23.290797</ele>
        <time>2021-06-29T18:04:08.320Z</time>
      </trkpt>
      <trkpt lat="50.46566" lon="3.2894">
        <ele>23.161558</ele>
        <time>2021-06-29T18:04:12.048Z</time>
      </trkpt>
      <trkpt lat="50.46559" lon="3.28928">
        <ele>23.114653</ele>
        <time>2021-06-29T18:04:13.374Z</time>
      </trkpt>
      <trkpt lat="50.46531" lon="3.28877">
        <ele>22.911698</ele>
        <time>2021-06-29T18:04:19.197Z</time>
      </trkpt>
      <trkpt lat="50.46518" lon="3.28858">
        <ele>22.82629</ele>
        <time>2021-06-29T18:04:21.695Z</time>
      </trkpt>
      <trkpt lat="50.46503" lon="3.28845">
        <ele>22.745928</ele>
        <time>2021-06-29T18:04:23.967Z</time>
      </trkpt>
      <trkpt lat="50.4626" lon="3.28697">
        <ele>21.818606</ele>
        <time>2021-06-29T18:04:59.240Z</time>
      </trkpt>
      <trkpt lat="50.46234" lon="3.28694">
        <ele>21.781577</ele>
        <time>2021-06-29T18:05:02.847Z</time>
      </trkpt>
      <trkpt lat="50.46212" lon="3.28702">
        <ele>21.749398</ele>
        <time>2021-06-29T18:05:06.070Z</time>
      </trkpt>
      <trkpt lat="50.46161" lon="3.28734">
        <ele>21.672404</ele>
        <time>2021-06-29T18:05:13.928Z</time>
      </trkpt>
      <trkpt lat="50.4609" lon="3.28781">
        <ele>21.720696</ele>
        <time>2021-06-29T18:05:25.607Z</time>
      </trkpt>
      <trkpt lat="50.46035" lon="3.28819">
        <ele>21.865361</ele>
        <time>2021-06-29T18:05:35.134Z</time>
      </trkpt>
      <trkpt lat="50.45937" lon="3.28877">
        <ele>22.149065</ele>
        <time>2021-06-29T18:05:51.908Z</time>
      </trkpt>
      <trkpt lat="50.45937" lon="3.28877">
        <ele>22.149065</ele>
        <time>2021-06-29T18:05:51.934Z</time>
      </trkpt>
      <trkpt lat="50.45882" lon="3.28895">
        <ele>22.360694</ele>
        <time>2021-06-29T18:06:01.333Z</time>
      </trkpt>
      <trkpt lat="50.45878" lon="3.28897">
        <ele>22.37873</ele>
        <time>2021-06-29T18:06:02.071Z</time>
      </trkpt>
      <trkpt lat="50.45866" lon="3.28896">
        <ele>22.422286</ele>
        <time>2021-06-29T18:06:04.029Z</time>
      </trkpt>
      <trkpt lat="50.4586" lon="3.28896">
        <ele>22.446318</ele>
        <time>2021-06-29T18:06:05.021Z</time>
      </trkpt>
      <trkpt lat="50.45867" lon="3.28854">
        <ele>22.548629</ele>
        <time>2021-06-29T18:06:09.676Z</time>
      </trkpt>
      <trkpt lat="50.4587" lon="3.28836">
        <ele>22.59302</ele>
        <time>2021-06-29T18:06:11.674Z</time>
      </trkpt>
      <trkpt lat="50.45876" lon="3.28805">
        <ele>22.672027</ele>
        <time>2021-06-29T18:06:15.139Z</time>
      </trkpt>
      <trkpt lat="50.45889" lon="3.28723">
        <ele>22.770745</ele>
        <time>2021-06-29T18:06:23.735Z</time>
      </trkpt>
      <trkpt lat="50.45908" lon="3.28684">
        <ele>22.807498</ele>
        <time>2021-06-29T18:06:28.674Z</time>
      </trkpt>
      <trkpt lat="50.45915" lon="3.28673">
        <ele>22.818967</ele>
        <time>2021-06-29T18:06:30.327Z</time>
      </trkpt>
      <trkpt lat="50.45924" lon="3.28655">
        <ele>22.835396</ele>
        <time>2021-06-29T18:06:32.545Z</time>
      </trkpt>
      <trkpt lat="50.45931" lon="3.28636">
        <ele>22.851692</ele>
        <time>2021-06-29T18:06:34.772Z</time>
      </trkpt>
      <trkpt lat="50.45909" lon="3.28614">
        <ele>22.881426</ele>
        <time>2021-06-29T18:06:40.037Z</time>
      </trkpt>
      <trkpt lat="50.45886" lon="3.28586">
        <ele>22.915604</ele>
        <time>2021-06-29T18:06:45.876Z</time>
      </trkpt>
      <trkpt lat="50.45864" lon="3.28571">
        <ele>22.903458</ele>
        <time>2021-06-29T18:06:50.508Z</time>
      </trkpt>
      <trkpt lat="50.45859" lon="3.28567">
        <ele>22.885226</ele>
        <time>2021-06-29T18:06:51.413Z</time>
      </trkpt>
      <trkpt lat="50.45827" lon="3.28529">
        <ele>22.732701</ele>
        <time>2021-06-29T18:06:58.986Z</time>
      </trkpt>
      <trkpt lat="50.45822" lon="3.28522">
        <ele>22.707702</ele>
        <time>2021-06-29T18:07:00.221Z</time>
      </trkpt>
      <trkpt lat="50.45752" lon="3.28433">
        <ele>22.367158</ele>
        <time>2021-06-29T18:07:17.120Z</time>
      </trkpt>
      <trkpt lat="50.45737" lon="3.28411">
        <ele>22.290561</ele>
        <time>2021-06-29T18:07:21.242Z</time>
      </trkpt>
      <trkpt lat="50.45733" lon="3.28406">
        <ele>22.273804</ele>
        <time>2021-06-29T18:07:22.087Z</time>
      </trkpt>
      <trkpt lat="50.45723" lon="3.28392">
        <ele>22.220859</ele>
        <time>2021-06-29T18:07:24.744Z</time>
      </trkpt>
      <trkpt lat="50.45715" lon="3.2838">
        <ele>22.180115</ele>
        <time>2021-06-29T18:07:27.069Z</time>
      </trkpt>
      <trkpt lat="50.45714" lon="3.28365">
        <ele>22.144902</ele>
        <time>2021-06-29T18:07:28.827Z</time>
      </trkpt>
      <trkpt lat="50.45747" lon="3.28235">
        <ele>21.80716</ele>
        <time>2021-06-29T18:07:45.430Z</time>
      </trkpt>
      <trkpt lat="50.45749" lon="3.28228">
        <ele>21.790109</ele>
        <time>2021-06-29T18:07:46.412Z</time>
      </trkpt>
      <trkpt lat="50.45743" lon="3.28203">
        <ele>21.723692</ele>
        <time>2021-06-29T18:07:49.602Z</time>
      </trkpt>
      <trkpt lat="50.45727" lon="3.2817">
        <ele>21.624386</ele>
        <time>2021-06-29T18:07:54.647Z</time>
      </trkpt>
      <trkpt lat="50.45725" lon="3.28168">
        <ele>21.617512</ele>
        <time>2021-06-29T18:07:54.968Z</time>
      </trkpt>
      <trkpt lat="50.45712" lon="3.28147">
        <ele>21.556307</ele>
        <time>2021-06-29T18:07:58.547Z</time>
      </trkpt>
      <trkpt lat="50.45704" lon="3.28135">
        <ele>21.528148</ele>
        <time>2021-06-29T18:08:00.693Z</time>
      </trkpt>
      <trkpt lat="50.45681" lon="3.28102">
        <ele>21.447805</ele>
        <time>2021-06-29T18:08:06.634Z</time>
      </trkpt>
      <trkpt lat="50.4565" lon="3.28064">
        <ele>21.346586</ele>
        <time>2021-06-29T18:08:14.181Z</time>
      </trkpt>
      <trkpt lat="50.45642" lon="3.28053">
        <ele>21.317986</ele>
        <time>2021-06-29T18:08:16.246Z</time>
      </trkpt>
      <trkpt lat="50.45631" lon="3.28037">
        <ele>21.27924</ele>
        <time>2021-06-29T18:08:19.148Z</time>
      </trkpt>
      <trkpt lat="50.45601" lon="3.27991">
        <ele>21.170236</ele>
        <time>2021-06-29T18:08:27.169Z</time>
      </trkpt>
      <trkpt lat="50.45524" lon="3.27849">
        <ele>21.159919</ele>
        <time>2021-06-29T18:08:51.516Z</time>
      </trkpt>
      <trkpt lat="50.45524" lon="3.27849">
        <ele>21.159919</ele>
        <time>2021-06-29T18:08:51.537Z</time>
      </trkpt>
      <trkpt lat="50.45497" lon="3.27771">
        <ele>21.187133</ele>
        <time>2021-06-29T18:09:03.133Z</time>
      </trkpt>
      <trkpt lat="50.45475" lon="3.27686">
        <ele>21.231474</ele>
        <time>2021-06-29T18:09:14.853Z</time>
      </trkpt>
      <trkpt lat="50.4546" lon="3.27654">
        <ele>21.256397</ele>
        <time>2021-06-29T18:09:19.948Z</time>
      </trkpt>
      <trkpt lat="50.45447" lon="3.27626">
        <ele>21.278686</ele>
        <time>2021-06-29T18:09:24.485Z</time>
      </trkpt>
      <trkpt lat="50.45402" lon="3.27556">
        <ele>21.342412</ele>
        <time>2021-06-29T18:09:37.647Z</time>
      </trkpt>
      <trkpt lat="50.45355" lon="3.27518">
        <ele>21.435859</ele>
        <time>2021-06-29T18:09:46.152Z</time>
      </trkpt>
      <trkpt lat="50.45293" lon="3.27473">
        <ele>21.68634</ele>
        <time>2021-06-29T18:09:57.477Z</time>
      </trkpt>
      <trkpt lat="50.45249" lon="3.27451">
        <ele>21.852065</ele>
        <time>2021-06-29T18:10:05.220Z</time>
      </trkpt>
      <trkpt lat="50.45208" lon="3.27452">
        <ele>22.002783</ele>
        <time>2021-06-29T18:10:12.017Z</time>
      </trkpt>
      <trkpt lat="50.45202" lon="3.27452">
        <ele>22.026139</ele>
        <time>2021-06-29T18:10:12.889Z</time>
      </trkpt>
      <trkpt lat="50.45137" lon="3.27467">
        <ele>21.90253</ele>
        <time>2021-06-29T18:10:22.948Z</time>
      </trkpt>
      <trkpt lat="50.45119" lon="3.27465">
        <ele>21.865962</ele>
        <time>2021-06-29T18:10:25.345Z</time>
      </trkpt>
      <trkpt lat="50.45094" lon="3.27449">
        <ele>21.808711</ele>
        <time>2021-06-29T18:10:29.075Z</time>
      </trkpt>
      <trkpt lat="50.4508" lon="3.27475">
        <ele>21.761122</ele>
        <time>2021-06-29T18:10:33.390Z</time>
      </trkpt>
      <trkpt lat="50.45046" lon="3.27536">
        <ele>21.650444</ele>
        <time>2021-06-29T18:10:42.640Z</time>
      </trkpt>
      <trkpt lat="50.44999" lon="3.27555">
        <ele>21.43194</ele>
        <time>2021-06-29T18:10:51.522Z</time>
      </trkpt>
      <trkpt lat="50.44913" lon="3.27547">
        <ele>21.040838</ele>
        <time>2021-06-29T18:11:07.588Z</time>
      </trkpt>
      <trkpt lat="50.44898" lon="3.27546">
        <ele>20.973608</ele>
        <time>2021-06-29T18:11:10.451Z</time>
      </trkpt>
      <trkpt lat="50.44868" lon="3.27556">
        <ele>20.836882</ele>
        <time>2021-06-29T18:11:16.307Z</time>
      </trkpt>
      <trkpt lat="50.44848" lon="3.27573">
        <ele>20.790558</ele>
        <time>2021-06-29T18:11:20.659Z</time>
      </trkpt>
      <trkpt lat="50.44703" lon="3.27646">
        <ele>20.47874</ele>
        <time>2021-06-29T18:11:50.831Z</time>
      </trkpt>
      <trkpt lat="50.44686" lon="3.27662">
        <ele>20.415521</ele>
        <time>2021-06-29T18:11:54.531Z</time>
      </trkpt>
      <trkpt lat="50.44649" lon="3.27731">
        <ele>20.21386</ele>
        <time>2021-06-29T18:12:05.489Z</time>
      </trkpt>
      <trkpt lat="50.4463" lon="3.27767">
        <ele>20.107312</ele>
        <time>2021-06-29T18:12:11.035Z</time>
      </trkpt>
      <trkpt lat="50.44608" lon="3.27801">
        <ele>19.998856</ele>
        <time>2021-06-29T18:12:16.666Z</time>
      </trkpt>
      <trkpt lat="50.44522" lon="3.27871">
        <ele>20.104378</ele>
        <time>2021-06-29T18:12:35.236Z</time>
      </trkpt>
      <trkpt lat="50.4449" lon="3.27878">
        <ele>20.2737</ele>
        <time>2021-06-29T18:12:41.995Z</time>
      </trkpt>
      <trkpt lat="50.4445" lon="3.27861">
        <ele>20.486921</ele>
        <time>2021-06-29T18:12:51.255Z</time>
      </trkpt>
      <trkpt lat="50.44416" lon="3.27877">
        <ele>20.670827</ele>
        <time>2021-06-29T18:12:59.805Z</time>
      </trkpt>
      <trkpt lat="50.44315" lon="3.27944">
        <ele>22.737447</ele>
        <time>2021-06-29T18:13:30.148Z</time>
      </trkpt>
      <trkpt lat="50.44199" lon="3.28128">
        <ele>26.285983</ele>
        <time>2021-06-29T18:14:20.942Z</time>
      </trkpt>
      <trkpt lat="50.44173" lon="3.2815">
        <ele>26.916398</ele>
        <time>2021-06-29T18:14:29.877Z</time>
      </trkpt>
      <trkpt lat="50.4413" lon="3.28217">
        <ele>28.198636</ele>
        <time>2021-06-29T18:14:46.625Z</time>
      </trkpt>
      <trkpt lat="50.44102" lon="3.28219">
        <ele>28.537175</ele>
        <time>2021-06-29T18:14:53.686Z</time>
      </trkpt>
      <trkpt lat="50.44088" lon="3.2821">
        <ele>28.574424</ele>
        <time>2021-06-29T18:14:57.653Z</time>
      </trkpt>
      <trkpt lat="50.44078" lon="3.28206">
        <ele>28.600273</ele>
        <time>2021-06-29T18:15:00.061Z</time>
      </trkpt>
      <trkpt lat="50.43865" lon="3.28098">
        <ele>28.778374</ele>
        <time>2021-06-29T18:15:44.042Z</time>
      </trkpt>
      <trkpt lat="50.43746" lon="3.28039">
        <ele>28.784658</ele>
        <time>2021-06-29T18:16:07.825Z</time>
      </trkpt>
      <trkpt lat="50.43741" lon="3.28037">
        <ele>28.819647</ele>
        <time>2021-06-29T18:16:08.816Z</time>
      </trkpt>
      <trkpt lat="50.43733" lon="3.28034">
        <ele>28.879186</ele>
        <time>2021-06-29T18:16:10.573Z</time>
      </trkpt>
      <trkpt lat="50.43733" lon="3.28043">
        <ele>28.921515</ele>
        <time>2021-06-29T18:16:11.817Z</time>
      </trkpt>
      <trkpt lat="50.43732" lon="3.28058">
        <ele>28.993018</ele>
        <time>2021-06-29T18:16:13.968Z</time>
      </trkpt>
      <trkpt lat="50.43725" lon="3.28244">
        <ele>29.855123</ele>
        <time>2021-06-29T18:16:42.929Z</time>
      </trkpt>
      <trkpt lat="50.4372" lon="3.28383">
        <ele>30.768118</ele>
        <time>2021-06-29T18:17:06.387Z</time>
      </trkpt>
      <trkpt lat="50.43719" lon="3.28404">
        <ele>30.911381</ele>
        <time>2021-06-29T18:17:09.924Z</time>
      </trkpt>
      <trkpt lat="50.43696" lon="3.28945">
        <ele>32.692471</ele>
        <time>2021-06-29T18:18:28.049Z</time>
      </trkpt>
      <trkpt lat="50.43693" lon="3.29018">
        <ele>32.622636</ele>
        <time>2021-06-29T18:18:36.986Z</time>
      </trkpt>
      <trkpt lat="50.43693" lon="3.29029">
        <ele>32.612049</ele>
        <time>2021-06-29T18:18:38.303Z</time>
      </trkpt>
      <trkpt lat="50.43677" lon="3.29403">
        <ele>30.0014</ele>
        <time>2021-06-29T18:19:18.383Z</time>
      </trkpt>
      <trkpt lat="50.43679" lon="3.29425">
        <ele>29.863514</ele>
        <time>2021-06-29T18:19:20.612Z</time>
      </trkpt>
      <trkpt lat="50.43689" lon="3.29466">
        <ele>29.595568</ele>
        <time>2021-06-29T18:19:25.269Z</time>
      </trkpt>
      <trkpt lat="50.43689" lon="3.29478">
        <ele>29.517628</ele>
        <time>2021-06-29T18:19:26.527Z</time>
      </trkpt>
      <trkpt lat="50.43685" lon="3.29497">
        <ele>29.394672</ele>
        <time>2021-06-29T18:19:28.078Z</time>
      </trkpt>
      <trkpt lat="50.43685" lon="3.29519">
        <ele>29.256635</ele>
        <time>2021-06-29T18:19:29.782Z</time>
      </trkpt>
      <trkpt lat="50.43699" lon="3.2958">
        <ele>28.858971</ele>
        <time>2021-06-29T18:19:34.882Z</time>
      </trkpt>
      <trkpt lat="50.43713" lon="3.29678">
        <ele>28.481424</ele>
        <time>2021-06-29T18:19:43.504Z</time>
      </trkpt>
      <trkpt lat="50.43715" lon="3.29708">
        <ele>28.560577</ele>
        <time>2021-06-29T18:19:46.419Z</time>
      </trkpt>
      <trkpt lat="50.4371" lon="3.29736">
        <ele>28.634384</ele>
        <time>2021-06-29T18:19:49.373Z</time>
      </trkpt>
      <trkpt lat="50.43701" lon="3.29762">
        <ele>28.711571</ele>
        <time>2021-06-29T18:19:52.865Z</time>
      </trkpt>
      <trkpt lat="50.43696" lon="3.29774">
        <ele>28.748313</ele>
        <time>2021-06-29T18:19:54.502Z</time>
      </trkpt>
      <trkpt lat="50.43687" lon="3.29796">
        <ele>28.814908</ele>
        <time>2021-06-29T18:19:57.508Z</time>
      </trkpt>
      <trkpt lat="50.43665" lon="3.29848">
        <ele>28.975617</ele>
        <time>2021-06-29T18:20:04.534Z</time>
      </trkpt>
      <trkpt lat="50.43637" lon="3.29975">
        <ele>29.22142</ele>
        <time>2021-06-29T18:20:19.509Z</time>
      </trkpt>
      <trkpt lat="50.4363" lon="3.30004">
        <ele>29.255487</ele>
        <time>2021-06-29T18:20:22.539Z</time>
      </trkpt>
      <trkpt lat="50.43628" lon="3.30036">
        <ele>29.292033</ele>
        <time>2021-06-29T18:20:25.795Z</time>
      </trkpt>
      <trkpt lat="50.43626" lon="3.30061">
        <ele>29.320627</ele>
        <time>2021-06-29T18:20:28.120Z</time>
      </trkpt>
      <trkpt lat="50.43626" lon="3.30167">
        <ele>29.43953</ele>
        <time>2021-06-29T18:20:37.936Z</time>
      </trkpt>
      <trkpt lat="50.43619" lon="3.30199">
        <ele>29.42528</ele>
        <time>2021-06-29T18:20:41.132Z</time>
      </trkpt>
      <trkpt lat="50.43574" lon="3.3031">
        <ele>29.170674</ele>
        <time>2021-06-29T18:20:52.891Z</time>
      </trkpt>
      <trkpt lat="50.43552" lon="3.30398">
        <ele>28.986731</ele>
        <time>2021-06-29T18:21:01.093Z</time>
      </trkpt>
      <trkpt lat="50.43537" lon="3.30437">
        <ele>28.898921</ele>
        <time>2021-06-29T18:21:04.899Z</time>
      </trkpt>
      <trkpt lat="50.43497" lon="3.30473">
        <ele>28.756607</ele>
        <time>2021-06-29T18:21:11.034Z</time>
      </trkpt>
      <trkpt lat="50.4349" lon="3.3048">
        <ele>28.729744</ele>
        <time>2021-06-29T18:21:12.173Z</time>
      </trkpt>
      <trkpt lat="50.43479" lon="3.30501">
        <ele>28.676792</ele>
        <time>2021-06-29T18:21:14.484Z</time>
      </trkpt>
      <trkpt lat="50.43459" lon="3.3056">
        <ele>28.546085</ele>
        <time>2021-06-29T18:21:20.410Z</time>
      </trkpt>
      <trkpt lat="50.43451" lon="3.30591">
        <ele>28.478993</ele>
        <time>2021-06-29T18:21:23.443Z</time>
      </trkpt>
      <trkpt lat="50.43447" lon="3.30616">
        <ele>28.427329</ele>
        <time>2021-06-29T18:21:25.834Z</time>
      </trkpt>
      <trkpt lat="50.43447" lon="3.3067">
        <ele>28.31311</ele>
        <time>2021-06-29T18:21:30.692Z</time>
      </trkpt>
      <trkpt lat="50.43447" lon="3.3068">
        <ele>28.289405</ele>
        <time>2021-06-29T18:21:31.587Z</time>
      </trkpt>
      <trkpt lat="50.43439" lon="3.30797">
        <ele>28.007189</ele>
        <time>2021-06-29T18:21:42.175Z</time>
      </trkpt>
      <trkpt lat="50.43443" lon="3.30949">
        <ele>27.539897</ele>
        <time>2021-06-29T18:21:55.468Z</time>
      </trkpt>
      <trkpt lat="50.43426" lon="3.31078">
        <ele>26.303388</ele>
        <time>2021-06-29T18:22:05.341Z</time>
      </trkpt>
      <trkpt lat="50.43386" lon="3.31224">
        <ele>24.738725</ele>
        <time>2021-06-29T18:22:16.567Z</time>
      </trkpt>
      <trkpt lat="50.4336" lon="3.31267">
        <ele>23.979419</ele>
        <time>2021-06-29T18:22:20.700Z</time>
      </trkpt>
      <trkpt lat="50.4335" lon="3.31278">
        <ele>23.738438</ele>
        <time>2021-06-29T18:22:22.551Z</time>
      </trkpt>
      <trkpt lat="50.43265" lon="3.31324">
        <ele>21.954955</ele>
        <time>2021-06-29T18:22:36.580Z</time>
      </trkpt>
      <trkpt lat="50.43239" lon="3.3133">
        <ele>21.421206</ele>
        <time>2021-06-29T18:22:40.835Z</time>
      </trkpt>
      <trkpt lat="50.43216" lon="3.31338">
        <ele>21.100313</ele>
        <time>2021-06-29T18:22:44.634Z</time>
      </trkpt>
      <trkpt lat="50.43154" lon="3.31392">
        <ele>20.135148</ele>
        <time>2021-06-29T18:22:56.613Z</time>
      </trkpt>
      <trkpt lat="50.43091" lon="3.31387">
        <ele>19.280391</ele>
        <time>2021-06-29T18:23:07.165Z</time>
      </trkpt>
      <trkpt lat="50.43046" lon="3.31405">
        <ele>18.819513</ele>
        <time>2021-06-29T18:23:15.148Z</time>
      </trkpt>
      <trkpt lat="50.4304" lon="3.31417">
        <ele>18.750346</ele>
        <time>2021-06-29T18:23:16.900Z</time>
      </trkpt>
      <trkpt lat="50.43047" lon="3.3143">
        <ele>18.676262</ele>
        <time>2021-06-29T18:23:18.224Z</time>
      </trkpt>
      <trkpt lat="50.43072" lon="3.31536">
        <ele>18.177686</ele>
        <time>2021-06-29T18:23:27.419Z</time>
      </trkpt>
      <trkpt lat="50.43105" lon="3.31754">
        <ele>17.532923</ele>
        <time>2021-06-29T18:23:46.643Z</time>
      </trkpt>
      <trkpt lat="50.43112" lon="3.318">
        <ele>17.453406</ele>
        <time>2021-06-29T18:23:50.979Z</time>
      </trkpt>
      <trkpt lat="50.43121" lon="3.31861">
        <ele>17.350084</ele>
        <time>2021-06-29T18:23:56.672Z</time>
      </trkpt>
      <trkpt lat="50.43135" lon="3.31962">
        <ele>17.315325</ele>
        <time>2021-06-29T18:24:06.363Z</time>
      </trkpt>
      <trkpt lat="50.43164" lon="3.32276">
        <ele>17.670789</ele>
        <time>2021-06-29T18:24:37.694Z</time>
      </trkpt>
      <trkpt lat="50.43165" lon="3.3239">
        <ele>17.896402</ele>
        <time>2021-06-29T18:24:49.937Z</time>
      </trkpt>
      <trkpt lat="50.43163" lon="3.32421">
        <ele>17.958137</ele>
        <time>2021-06-29T18:24:53.150Z</time>
      </trkpt>
      <trkpt lat="50.43158" lon="3.32524">
        <ele>18.119806</ele>
        <time>2021-06-29T18:25:03.520Z</time>
      </trkpt>
      <trkpt lat="50.43161" lon="3.32539">
        <ele>18.140776</ele>
        <time>2021-06-29T18:25:05.340Z</time>
      </trkpt>
      <trkpt lat="50.4317" lon="3.32562">
        <ele>18.173264</ele>
        <time>2021-06-29T18:25:07.822Z</time>
      </trkpt>
      <trkpt lat="50.43188" lon="3.32615">
        <ele>18.248082</ele>
        <time>2021-06-29T18:25:13.590Z</time>
      </trkpt>
      <trkpt lat="50.43193" lon="3.32629">
        <ele>18.268483</ele>
        <time>2021-06-29T18:25:15.024Z</time>
      </trkpt>
      <trkpt lat="50.43258" lon="3.32817">
        <ele>18.807732</ele>
        <time>2021-06-29T18:25:37.015Z</time>
      </trkpt>
      <trkpt lat="50.43265" lon="3.32836">
        <ele>18.8909</ele>
        <time>2021-06-29T18:25:39.087Z</time>
      </trkpt>
      <trkpt lat="50.43293" lon="3.32826">
        <ele>19.061781</ele>
        <time>2021-06-29T18:25:44.198Z</time>
      </trkpt>
      <trkpt lat="50.43391" lon="3.3279">
        <ele>19.694785</ele>
        <time>2021-06-29T18:26:02.664Z</time>
      </trkpt>
      <trkpt lat="50.43415" lon="3.32808">
        <ele>19.876756</ele>
        <time>2021-06-29T18:26:07.426Z</time>
      </trkpt>
      <trkpt lat="50.43446" lon="3.32852">
        <ele>20.168171</ele>
        <time>2021-06-29T18:26:15.252Z</time>
      </trkpt>
      <trkpt lat="50.4347" lon="3.32889">
        <ele>20.409309</ele>
        <time>2021-06-29T18:26:21.190Z</time>
      </trkpt>
      <trkpt lat="50.43501" lon="3.32863">
        <ele>20.651826</ele>
        <time>2021-06-29T18:26:28.795Z</time>
      </trkpt>
      <trkpt lat="50.43501" lon="3.32863">
        <ele>20.651826</ele>
        <time>2021-06-29T18:26:28.818Z</time>
      </trkpt>
      <trkpt lat="50.43505" lon="3.32871">
        <ele>20.702077</ele>
        <time>2021-06-29T18:26:30.379Z</time>
      </trkpt>
      <trkpt lat="50.43525" lon="3.32921">
        <ele>20.726278</ele>
        <time>2021-06-29T18:26:38.399Z</time>
      </trkpt>
      <trkpt lat="50.43528" lon="3.32949">
        <ele>20.724675</ele>
        <time>2021-06-29T18:26:42.143Z</time>
      </trkpt>
      <trkpt lat="50.43556" lon="3.32992">
        <ele>20.721147</ele>
        <time>2021-06-29T18:26:48.080Z</time>
      </trkpt>
      <trkpt lat="50.43597" lon="3.33065">
        <ele>20.715555</ele>
        <time>2021-06-29T18:26:57.056Z</time>
      </trkpt>
      <trkpt lat="50.43633" lon="3.33115">
        <ele>20.624869</ele>
        <time>2021-06-29T18:27:03.600Z</time>
      </trkpt>
      <trkpt lat="50.43694" lon="3.33182">
        <ele>20.312801</ele>
        <time>2021-06-29T18:27:13.598Z</time>
      </trkpt>
      <trkpt lat="50.43695" lon="3.33183">
        <ele>20.307177</ele>
        <time>2021-06-29T18:27:13.744Z</time>
      </trkpt>
      <trkpt lat="50.43743" lon="3.33242">
        <ele>20.051695</ele>
        <time>2021-06-29T18:27:22.091Z</time>
      </trkpt>
      <trkpt lat="50.43745" lon="3.33245">
        <ele>20.038639</ele>
        <time>2021-06-29T18:27:22.453Z</time>
      </trkpt>
      <trkpt lat="50.43753" lon="3.33258">
        <ele>19.990482</ele>
        <time>2021-06-29T18:27:23.933Z</time>
      </trkpt>
      <trkpt lat="50.43799" lon="3.3336">
        <ele>19.800975</ele>
        <time>2021-06-29T18:27:34.571Z</time>
      </trkpt>
      <trkpt lat="50.43847" lon="3.33462">
        <ele>19.625356</ele>
        <time>2021-06-29T18:27:46.028Z</time>
      </trkpt>
      <trkpt lat="50.43876" lon="3.33519">
        <ele>19.58216</ele>
        <time>2021-06-29T18:27:53.248Z</time>
      </trkpt>
      <trkpt lat="50.43886" lon="3.3354">
        <ele>19.596534</ele>
        <time>2021-06-29T18:27:55.841Z</time>
      </trkpt>
      <trkpt lat="50.43915" lon="3.33601">
        <ele>19.637602</ele>
        <time>2021-06-29T18:28:03.294Z</time>
      </trkpt>
      <trkpt lat="50.43946" lon="3.33669">
        <ele>19.682762</ele>
        <time>2021-06-29T18:28:11.386Z</time>
      </trkpt>
      <trkpt lat="50.43955" lon="3.3369">
        <ele>19.696626</ele>
        <time>2021-06-29T18:28:13.828Z</time>
      </trkpt>
      <trkpt lat="50.43964" lon="3.33726">
        <ele>19.717031</ele>
        <time>2021-06-29T18:28:17.563Z</time>
      </trkpt>
      <trkpt lat="50.43963" lon="3.33796">
        <ele>19.638631</ele>
        <time>2021-06-29T18:28:24.531Z</time>
      </trkpt>
      <trkpt lat="50.43961" lon="3.33916">
        <ele>19.497676</ele>
        <time>2021-06-29T18:28:35.439Z</time>
      </trkpt>
      <trkpt lat="50.43958" lon="3.33992">
        <ele>19.406902</ele>
        <time>2021-06-29T18:28:41.942Z</time>
      </trkpt>
      <trkpt lat="50.43946" lon="3.33991">
        <ele>19.382449</ele>
        <time>2021-06-29T18:28:43.570Z</time>
      </trkpt>
      <trkpt lat="50.43877" lon="3.33966">
        <ele>18.992753</ele>
        <time>2021-06-29T18:28:52.826Z</time>
      </trkpt>
      <trkpt lat="50.43854" lon="3.33976">
        <ele>18.860772</ele>
        <time>2021-06-29T18:28:55.947Z</time>
      </trkpt>
      <trkpt lat="50.43843" lon="3.33989">
        <ele>18.785879</ele>
        <time>2021-06-29T18:28:57.782Z</time>
      </trkpt>
      <trkpt lat="50.43838" lon="3.34">
        <ele>18.737268</ele>
        <time>2021-06-29T18:28:58.889Z</time>
      </trkpt>
      <trkpt lat="50.43829" lon="3.3402">
        <ele>18.653329</ele>
        <time>2021-06-29T18:29:00.911Z</time>
      </trkpt>
      <trkpt lat="50.43784" lon="3.34154">
        <ele>18.156136</ele>
        <time>2021-06-29T18:29:13.487Z</time>
      </trkpt>
      <trkpt lat="50.43757" lon="3.34211">
        <ele>17.939725</ele>
        <time>2021-06-29T18:29:19.404Z</time>
      </trkpt>
      <trkpt lat="50.43711" lon="3.34283">
        <ele>17.6266</ele>
        <time>2021-06-29T18:29:28.347Z</time>
      </trkpt>
      <trkpt lat="50.43618" lon="3.34403">
        <ele>17.352362</ele>
        <time>2021-06-29T18:29:45.059Z</time>
      </trkpt>
      <trkpt lat="50.43587" lon="3.34428">
        <ele>17.290874</ele>
        <time>2021-06-29T18:29:50.047Z</time>
      </trkpt>
      <trkpt lat="50.43551" lon="3.34461">
        <ele>17.218283</ele>
        <time>2021-06-29T18:29:56.088Z</time>
      </trkpt>
      <trkpt lat="50.43499" lon="3.34492">
        <ele>17.278514</ele>
        <time>2021-06-29T18:30:04.650Z</time>
      </trkpt>
      <trkpt lat="50.43429" lon="3.34527">
        <ele>17.370686</ele>
        <time>2021-06-29T18:30:15.945Z</time>
      </trkpt>
      <trkpt lat="50.43445" lon="3.34579">
        <ele>17.417235</ele>
        <time>2021-06-29T18:30:21.687Z</time>
      </trkpt>
      <trkpt lat="50.43451" lon="3.34612">
        <ele>17.435868</ele>
        <time>2021-06-29T18:30:25.062Z</time>
      </trkpt>
      <trkpt lat="50.43453" lon="3.34634">
        <ele>17.422123</ele>
        <time>2021-06-29T18:30:27.215Z</time>
      </trkpt>
      <trkpt lat="50.43463" lon="3.34681">
        <ele>17.390685</ele>
        <time>2021-06-29T18:30:32.003Z</time>
      </trkpt>
      <trkpt lat="50.43526" lon="3.34817">
        <ele>17.28336</ele>
        <time>2021-06-29T18:30:47.520Z</time>
      </trkpt>
      <trkpt lat="50.43532" lon="3.34848">
        <ele>17.26253</ele>
        <time>2021-06-29T18:30:50.396Z</time>
      </trkpt>
      <trkpt lat="50.43529" lon="3.34884">
        <ele>17.154101</ele>
        <time>2021-06-29T18:30:53.497Z</time>
      </trkpt>
      <trkpt lat="50.43519" lon="3.34909">
        <ele>17.05655</ele>
        <time>2021-06-29T18:30:56.036Z</time>
      </trkpt>
      <trkpt lat="50.43512" lon="3.34917">
        <ele>17.014759</ele>
        <time>2021-06-29T18:30:57.097Z</time>
      </trkpt>
      <trkpt lat="50.43478" lon="3.34957">
        <ele>16.795852</ele>
        <time>2021-06-29T18:31:02.713Z</time>
      </trkpt>
      <trkpt lat="50.43471" lon="3.34976">
        <ele>16.724904</ele>
        <time>2021-06-29T18:31:04.424Z</time>
      </trkpt>
      <trkpt lat="50.43479" lon="3.35139">
        <ele>16.241887</ele>
        <time>2021-06-29T18:31:18.093Z</time>
      </trkpt>
      <trkpt lat="50.43473" lon="3.35179">
        <ele>16.158852</ele>
        <time>2021-06-29T18:31:21.677Z</time>
      </trkpt>
      <trkpt lat="50.43463" lon="3.35205">
        <ele>16.096862</ele>
        <time>2021-06-29T18:31:24.196Z</time>
      </trkpt>
      <trkpt lat="50.43453" lon="3.35228">
        <ele>16.04155</ele>
        <time>2021-06-29T18:31:26.685Z</time>
      </trkpt>
      <trkpt lat="50.43445" lon="3.35244">
        <ele>15.999607</ele>
        <time>2021-06-29T18:31:28.397Z</time>
      </trkpt>
      <trkpt lat="50.43435" lon="3.35261">
        <ele>15.952662</ele>
        <time>2021-06-29T18:31:30.552Z</time>
      </trkpt>
      <trkpt lat="50.43333" lon="3.35354">
        <ele>15.827646</ele>
        <time>2021-06-29T18:31:47.538Z</time>
      </trkpt>
      <trkpt lat="50.43248" lon="3.35451">
        <ele>15.953656</ele>
        <time>2021-06-29T18:32:03.967Z</time>
      </trkpt>
      <trkpt lat="50.43221" lon="3.35461">
        <ele>15.998825</ele>
        <time>2021-06-29T18:32:08.356Z</time>
      </trkpt>
      <trkpt lat="50.43151" lon="3.35465">
        <ele>16.163873</ele>
        <time>2021-06-29T18:32:19.492Z</time>
      </trkpt>
      <trkpt lat="50.43071" lon="3.35479">
        <ele>16.353064</ele>
        <time>2021-06-29T18:32:32.416Z</time>
      </trkpt>
      <trkpt lat="50.42973" lon="3.35503">
        <ele>16.383907</ele>
        <time>2021-06-29T18:32:47.577Z</time>
      </trkpt>
      <trkpt lat="50.42942" lon="3.35521">
        <ele>16.377635</ele>
        <time>2021-06-29T18:32:52.559Z</time>
      </trkpt>
      <trkpt lat="50.42926" lon="3.35534">
        <ele>16.374341</ele>
        <time>2021-06-29T18:32:55.121Z</time>
      </trkpt>
      <trkpt lat="50.42906" lon="3.35559">
        <ele>16.369611</ele>
        <time>2021-06-29T18:32:58.772Z</time>
      </trkpt>
      <trkpt lat="50.42871" lon="3.3581">
        <ele>16.168077</ele>
        <time>2021-06-29T18:33:21.995Z</time>
      </trkpt>
      <trkpt lat="50.42852" lon="3.35948">
        <ele>16.142218</ele>
        <time>2021-06-29T18:33:35.347Z</time>
      </trkpt>
      <trkpt lat="50.42847" lon="3.35996">
        <ele>16.159999</ele>
        <time>2021-06-29T18:33:40.070Z</time>
      </trkpt>
      <trkpt lat="50.42724" lon="3.36873">
        <ele>16.46785</ele>
        <time>2021-06-29T18:35:06.462Z</time>
      </trkpt>
      <trkpt lat="50.42718" lon="3.36892">
        <ele>16.47344</ele>
        <time>2021-06-29T18:35:08.477Z</time>
      </trkpt>
      <trkpt lat="50.4271" lon="3.36898">
        <ele>16.477067</ele>
        <time>2021-06-29T18:35:09.781Z</time>
      </trkpt>
      <trkpt lat="50.42686" lon="3.36915">
        <ele>16.48807</ele>
        <time>2021-06-29T18:35:13.746Z</time>
      </trkpt>
      <trkpt lat="50.42672" lon="3.36924">
        <ele>16.49423</ele>
        <time>2021-06-29T18:35:15.962Z</time>
      </trkpt>
      <trkpt lat="50.42613" lon="3.36958">
        <ele>16.411788</ele>
        <time>2021-06-29T18:35:25.265Z</time>
      </trkpt>
      <trkpt lat="50.42555" lon="3.36998">
        <ele>16.32547</ele>
        <time>2021-06-29T18:35:34.390Z</time>
      </trkpt>
      <trkpt lat="50.42464" lon="3.37078">
        <ele>16.270499</ele>
        <time>2021-06-29T18:35:48.707Z</time>
      </trkpt>
      <trkpt lat="50.42386" lon="3.37172">
        <ele>16.311767</ele>
        <time>2021-06-29T18:36:03.150Z</time>
      </trkpt>
      <trkpt lat="50.42376" lon="3.37193">
        <ele>16.319072</ele>
        <time>2021-06-29T18:36:05.949Z</time>
      </trkpt>
      <trkpt lat="50.42376" lon="3.37193">
        <ele>16.319072</ele>
        <time>2021-06-29T18:36:05.953Z</time>
      </trkpt>
      <trkpt lat="50.42437" lon="3.37285">
        <ele>16.970641</ele>
        <time>2021-06-29T18:36:20.993Z</time>
      </trkpt>
      <trkpt lat="50.4248" lon="3.37352">
        <ele>17.540767</ele>
        <time>2021-06-29T18:36:32.840Z</time>
      </trkpt>
      <trkpt lat="50.4254" lon="3.37484">
        <ele>18.186955</ele>
        <time>2021-06-29T18:36:53.361Z</time>
      </trkpt>
      <trkpt lat="50.42557" lon="3.37552">
        <ele>18.339112</ele>
        <time>2021-06-29T18:37:01.713Z</time>
      </trkpt>
      <trkpt lat="50.42618" lon="3.37952">
        <ele>17.606524</ele>
        <time>2021-06-29T18:37:36.442Z</time>
      </trkpt>
      <trkpt lat="50.42626" lon="3.38072">
        <ele>17.064685</ele>
        <time>2021-06-29T18:37:45.910Z</time>
      </trkpt>
      <trkpt lat="50.4264" lon="3.38271">
        <ele>16.312078</ele>
        <time>2021-06-29T18:38:02.301Z</time>
      </trkpt>
      <trkpt lat="50.4265" lon="3.38379">
        <ele>16.211001</ele>
        <time>2021-06-29T18:38:12.342Z</time>
      </trkpt>
      <trkpt lat="50.42697" lon="3.38664">
        <ele>16.184587</ele>
        <time>2021-06-29T18:38:40.956Z</time>
      </trkpt>
      <trkpt lat="50.42705" lon="3.3867">
        <ele>16.193215</ele>
        <time>2021-06-29T18:38:42.318Z</time>
      </trkpt>
      <trkpt lat="50.42799" lon="3.38641">
        <ele>16.254093</ele>
        <time>2021-06-29T18:38:57.070Z</time>
      </trkpt>
      <trkpt lat="50.42809" lon="3.38638">
        <ele>16.254114</ele>
        <time>2021-06-29T18:38:58.518Z</time>
      </trkpt>
      <trkpt lat="50.42819" lon="3.38634">
        <ele>16.254136</ele>
        <time>2021-06-29T18:39:00.060Z</time>
      </trkpt>
      <trkpt lat="50.42832" lon="3.38751">
        <ele>16.254288</ele>
        <time>2021-06-29T18:39:11.037Z</time>
      </trkpt>
      <trkpt lat="50.42832" lon="3.38759">
        <ele>16.254298</ele>
        <time>2021-06-29T18:39:11.886Z</time>
      </trkpt>
      <trkpt lat="50.42826" lon="3.38764">
        <ele>16.254313</ele>
        <time>2021-06-29T18:39:12.906Z</time>
      </trkpt>
      <trkpt lat="50.42805" lon="3.38782">
        <ele>16.254361</ele>
        <time>2021-06-29T18:39:16.303Z</time>
      </trkpt>
      <trkpt lat="50.42794" lon="3.38792">
        <ele>16.254387</ele>
        <time>2021-06-29T18:39:18.272Z</time>
      </trkpt>
      <trkpt lat="50.42765" lon="3.3881">
        <ele>16.302587</ele>
        <time>2021-06-29T18:39:22.986Z</time>
      </trkpt>
      <trkpt lat="50.42721" lon="3.38828">
        <ele>16.390037</ele>
        <time>2021-06-29T18:39:30.490Z</time>
      </trkpt>
      <trkpt lat="50.42691" lon="3.38841">
        <ele>16.448594</ele>
        <time>2021-06-29T18:39:35.403Z</time>
      </trkpt>
      <trkpt lat="50.42666" lon="3.38849">
        <ele>16.498047</ele>
        <time>2021-06-29T18:39:39.399Z</time>
      </trkpt>
      <trkpt lat="50.42622" lon="3.38866">
        <ele>16.585726</ele>
        <time>2021-06-29T18:39:46.379Z</time>
      </trkpt>
      <trkpt lat="50.42605" lon="3.38872">
        <ele>16.590461</ele>
        <time>2021-06-29T18:39:48.987Z</time>
      </trkpt>
      <trkpt lat="50.42601" lon="3.38874">
        <ele>16.587396</ele>
        <time>2021-06-29T18:39:49.667Z</time>
      </trkpt>
      <trkpt lat="50.42571" lon="3.38887">
        <ele>16.564533</ele>
        <time>2021-06-29T18:39:54.418Z</time>
      </trkpt>
      <trkpt lat="50.42538" lon="3.38904">
        <ele>16.538717</ele>
        <time>2021-06-29T18:39:59.642Z</time>
      </trkpt>
      <trkpt lat="50.42489" lon="3.38946">
        <ele>16.497447</ele>
        <time>2021-06-29T18:40:07.578Z</time>
      </trkpt>
      <trkpt lat="50.42442" lon="3.39002">
        <ele>16.457477</ele>
        <time>2021-06-29T18:40:15.625Z</time>
      </trkpt>
      <trkpt lat="50.42412" lon="3.39049">
        <ele>16.435032</ele>
        <time>2021-06-29T18:40:21.528Z</time>
      </trkpt>
      <trkpt lat="50.42407" lon="3.39061">
        <ele>16.430123</ele>
        <time>2021-06-29T18:40:22.941Z</time>
      </trkpt>
      <trkpt lat="50.42402" lon="3.39072">
        <ele>16.425417</ele>
        <time>2021-06-29T18:40:24.373Z</time>
      </trkpt>
      <trkpt lat="50.42396" lon="3.39086">
        <ele>16.419831</ele>
        <time>2021-06-29T18:40:26.047Z</time>
      </trkpt>
      <trkpt lat="50.42322" lon="3.39255">
        <ele>16.392954</ele>
        <time>2021-06-29T18:40:45.538Z</time>
      </trkpt>
      <trkpt lat="50.42319" lon="3.39264">
        <ele>16.397206</ele>
        <time>2021-06-29T18:40:46.825Z</time>
      </trkpt>
      <trkpt lat="50.42254" lon="3.39417">
        <ele>16.467676</ele>
        <time>2021-06-29T18:41:04.301Z</time>
      </trkpt>
      <trkpt lat="50.42049" lon="3.39913">
        <ele>16.427328</ele>
        <time>2021-06-29T18:42:00.008Z</time>
      </trkpt>
      <trkpt lat="50.41929" lon="3.40203">
        <ele>16.681858</ele>
        <time>2021-06-29T18:42:33.626Z</time>
      </trkpt>
      <trkpt lat="50.41859" lon="3.40405">
        <ele>17.114006</ele>
        <time>2021-06-29T18:42:57.039Z</time>
      </trkpt>
      <trkpt lat="50.4184" lon="3.40477">
        <ele>17.599937</ele>
        <time>2021-06-29T18:43:05.447Z</time>
      </trkpt>
      <trkpt lat="50.41828" lon="3.40522">
        <ele>17.900769</ele>
        <time>2021-06-29T18:43:11.308Z</time>
      </trkpt>
      <trkpt lat="50.41823" lon="3.4054">
        <ele>18.025836</ele>
        <time>2021-06-29T18:43:13.985Z</time>
      </trkpt>
      <trkpt lat="50.41809" lon="3.4059">
        <ele>18.365399</ele>
        <time>2021-06-29T18:43:21.134Z</time>
      </trkpt>
      <trkpt lat="50.41787" lon="3.40667">
        <ele>18.868756</ele>
        <time>2021-06-29T18:43:31.552Z</time>
      </trkpt>
      <trkpt lat="50.41778" lon="3.40688">
        <ele>18.983131</ele>
        <time>2021-06-29T18:43:35.396Z</time>
      </trkpt>
      <trkpt lat="50.41765" lon="3.40712">
        <ele>19.123091</ele>
        <time>2021-06-29T18:43:38.635Z</time>
      </trkpt>
      <trkpt lat="50.41764" lon="3.4072">
        <ele>19.158004</ele>
        <time>2021-06-29T18:43:39.999Z</time>
      </trkpt>
      <trkpt lat="50.41767" lon="3.40726">
        <ele>19.193997</ele>
        <time>2021-06-29T18:43:41.052Z</time>
      </trkpt>
      <trkpt lat="50.41772" lon="3.40734">
        <ele>19.246808</ele>
        <time>2021-06-29T18:43:42.500Z</time>
      </trkpt>
      <trkpt lat="50.41776" lon="3.40739">
        <ele>19.283044</ele>
        <time>2021-06-29T18:43:43.367Z</time>
      </trkpt>
      <trkpt lat="50.4178" lon="3.40743">
        <ele>19.312383</ele>
        <time>2021-06-29T18:43:44.052Z</time>
      </trkpt>
      <trkpt lat="50.41784" lon="3.40742">
        <ele>19.343946</ele>
        <time>2021-06-29T18:43:44.717Z</time>
      </trkpt>
      <trkpt lat="50.4182" lon="3.40737">
        <ele>19.593224</ele>
        <time>2021-06-29T18:43:51.198Z</time>
      </trkpt>
      <trkpt lat="50.41885" lon="3.40729">
        <ele>20.048845</ele>
        <time>2021-06-29T18:44:02.585Z</time>
      </trkpt>
      <trkpt lat="50.41922" lon="3.40725">
        <ele>19.693631</ele>
        <time>2021-06-29T18:44:07.864Z</time>
      </trkpt>
      <trkpt lat="50.41989" lon="3.40717">
        <ele>18.912623</ele>
        <time>2021-06-29T18:44:15.700Z</time>
      </trkpt>
      <trkpt lat="50.42035" lon="3.40708">
        <ele>18.368791</ele>
        <time>2021-06-29T18:44:20.965Z</time>
      </trkpt>
      <trkpt lat="50.42054" lon="3.40705">
        <ele>18.144204</ele>
        <time>2021-06-29T18:44:23.086Z</time>
      </trkpt>
      <trkpt lat="50.42084" lon="3.40701">
        <ele>17.747864</ele>
        <time>2021-06-29T18:44:26.413Z</time>
      </trkpt>
      <trkpt lat="50.42126" lon="3.40683">
        <ele>17.108161</ele>
        <time>2021-06-29T18:44:31.295Z</time>
      </trkpt>
      <trkpt lat="50.42166" lon="3.40669">
        <ele>16.508714</ele>
        <time>2021-06-29T18:44:35.896Z</time>
      </trkpt>
      <trkpt lat="50.42321" lon="3.40582">
        <ele>14.813834</ele>
        <time>2021-06-29T18:44:55.566Z</time>
      </trkpt>
      <trkpt lat="50.42335" lon="3.40575">
        <ele>14.723639</ele>
        <time>2021-06-29T18:44:57.511Z</time>
      </trkpt>
      <trkpt lat="50.4236" lon="3.40564">
        <ele>14.565477</ele>
        <time>2021-06-29T18:45:01.157Z</time>
      </trkpt>
      <trkpt lat="50.42425" lon="3.40544">
        <ele>14.297712</ele>
        <time>2021-06-29T18:45:11.129Z</time>
      </trkpt>
      <trkpt lat="50.42457" lon="3.40539">
        <ele>14.464304</ele>
        <time>2021-06-29T18:45:16.214Z</time>
      </trkpt>
      <trkpt lat="50.42482" lon="3.40542">
        <ele>14.594569</ele>
        <time>2021-06-29T18:45:20.291Z</time>
      </trkpt>
      <trkpt lat="50.42521" lon="3.40552">
        <ele>14.80123</ele>
        <time>2021-06-29T18:45:27.292Z</time>
      </trkpt>
      <trkpt lat="50.42537" lon="3.40559">
        <ele>14.889274</ele>
        <time>2021-06-29T18:45:30.349Z</time>
      </trkpt>
      <trkpt lat="50.42553" lon="3.40572">
        <ele>14.983038</ele>
        <time>2021-06-29T18:45:33.598Z</time>
      </trkpt>
      <trkpt lat="50.42599" lon="3.40612">
        <ele>15.289861</ele>
        <time>2021-06-29T18:45:43.032Z</time>
      </trkpt>
      <trkpt lat="50.42661" lon="3.40702">
        <ele>15.918771</ele>
        <time>2021-06-29T18:45:57.720Z</time>
      </trkpt>
      <trkpt lat="50.42681" lon="3.40731">
        <ele>16.127135</ele>
        <time>2021-06-29T18:46:02.671Z</time>
      </trkpt>
      <trkpt lat="50.42693" lon="3.40753">
        <ele>16.262863</ele>
        <time>2021-06-29T18:46:05.914Z</time>
      </trkpt>
      <trkpt lat="50.42706" lon="3.40784">
        <ele>16.43935</ele>
        <time>2021-06-29T18:46:10.234Z</time>
      </trkpt>
      <trkpt lat="50.4275" lon="3.40908">
        <ele>17.46668</ele>
        <time>2021-06-29T18:46:26.697Z</time>
      </trkpt>
      <trkpt lat="50.42769" lon="3.4095">
        <ele>17.851185</ele>
        <time>2021-06-29T18:46:32.922Z</time>
      </trkpt>
      <trkpt lat="50.42774" lon="3.40963">
        <ele>17.973186</ele>
        <time>2021-06-29T18:46:35.001Z</time>
      </trkpt>
      <trkpt lat="50.42829" lon="3.41113">
        <ele>19.420507</ele>
        <time>2021-06-29T18:46:58.866Z</time>
      </trkpt>
      <trkpt lat="50.42832" lon="3.41132">
        <ele>19.600057</ele>
        <time>2021-06-29T18:47:01.598Z</time>
      </trkpt>
      <trkpt lat="50.42836" lon="3.41153">
        <ele>19.793545</ele>
        <time>2021-06-29T18:47:04.482Z</time>
      </trkpt>
      <trkpt lat="50.4284" lon="3.41173">
        <ele>19.991647</ele>
        <time>2021-06-29T18:47:07.365Z</time>
      </trkpt>
      <trkpt lat="50.4285" lon="3.41236">
        <ele>20.587639</ele>
        <time>2021-06-29T18:47:15.794Z</time>
      </trkpt>
      <trkpt lat="50.42873" lon="3.41356">
        <ele>21.307773</ele>
        <time>2021-06-29T18:47:31.279Z</time>
      </trkpt>
      <trkpt lat="50.42881" lon="3.41438">
        <ele>21.404104</ele>
        <time>2021-06-29T18:47:40.688Z</time>
      </trkpt>
      <trkpt lat="50.42885" lon="3.41471">
        <ele>21.443053</ele>
        <time>2021-06-29T18:47:43.958Z</time>
      </trkpt>
      <trkpt lat="50.4289" lon="3.41509">
        <ele>21.488526</ele>
        <time>2021-06-29T18:47:47.463Z</time>
      </trkpt>
      <trkpt lat="50.42906" lon="3.41606">
        <ele>21.290486</ele>
        <time>2021-06-29T18:47:55.726Z</time>
      </trkpt>
      <trkpt lat="50.42918" lon="3.41683">
        <ele>20.486088</ele>
        <time>2021-06-29T18:48:01.582Z</time>
      </trkpt>
      <trkpt lat="50.4294" lon="3.41779">
        <ele>19.444933</ele>
        <time>2021-06-29T18:48:08.809Z</time>
      </trkpt>
      <trkpt lat="50.42978" lon="3.4197">
        <ele>17.251021</ele>
        <time>2021-06-29T18:48:22.759Z</time>
      </trkpt>
      <trkpt lat="50.4301" lon="3.42135">
        <ele>15.403029</ele>
        <time>2021-06-29T18:48:35.232Z</time>
      </trkpt>
      <trkpt lat="50.4305" lon="3.42343">
        <ele>14.508317</ele>
        <time>2021-06-29T18:48:53.094Z</time>
      </trkpt>
      <trkpt lat="50.43102" lon="3.42618">
        <ele>14.459029</ele>
        <time>2021-06-29T18:49:21.027Z</time>
      </trkpt>
      <trkpt lat="50.43131" lon="3.42753">
        <ele>14.579292</ele>
        <time>2021-06-29T18:49:35.431Z</time>
      </trkpt>
      <trkpt lat="50.43136" lon="3.42781">
        <ele>14.6065</ele>
        <time>2021-06-29T18:49:38.646Z</time>
      </trkpt>
      <trkpt lat="50.43131" lon="3.42797">
        <ele>14.622914</ele>
        <time>2021-06-29T18:49:40.746Z</time>
      </trkpt>
      <trkpt lat="50.43051" lon="3.43035">
        <ele>14.898108</ele>
        <time>2021-06-29T18:50:15.962Z</time>
      </trkpt>
      <trkpt lat="50.43034" lon="3.43431">
        <ele>15.421191</ele>
        <time>2021-06-29T18:51:09.818Z</time>
      </trkpt>
      <trkpt lat="50.43029" lon="3.43537">
        <ele>15.537459</ele>
        <time>2021-06-29T18:51:23.846Z</time>
      </trkpt>
      <trkpt lat="50.43028" lon="3.43555">
        <ele>15.554441</ele>
        <time>2021-06-29T18:51:26.131Z</time>
      </trkpt>
      <trkpt lat="50.43027" lon="3.43563">
        <ele>15.561702</ele>
        <time>2021-06-29T18:51:27.164Z</time>
      </trkpt>
      <trkpt lat="50.43024" lon="3.43609">
        <ele>15.603555</ele>
        <time>2021-06-29T18:51:33.259Z</time>
      </trkpt>
      <trkpt lat="50.43024" lon="3.43624">
        <ele>15.617378</ele>
        <time>2021-06-29T18:51:35.164Z</time>
      </trkpt>
      <trkpt lat="50.43041" lon="3.43734">
        <ele>15.7209</ele>
        <time>2021-06-29T18:51:50.336Z</time>
      </trkpt>
      <trkpt lat="50.43044" lon="3.43809">
        <ele>16.1565</ele>
        <time>2021-06-29T18:52:00.622Z</time>
      </trkpt>
      <trkpt lat="50.43052" lon="3.43828">
        <ele>16.303659</ele>
        <time>2021-06-29T18:52:03.925Z</time>
      </trkpt>
      <trkpt lat="50.43047" lon="3.43833">
        <ele>16.36515</ele>
        <time>2021-06-29T18:52:04.799Z</time>
      </trkpt>
      <trkpt lat="50.43013" lon="3.43873">
        <ele>16.802561</ele>
        <time>2021-06-29T18:52:12.422Z</time>
      </trkpt>
      <trkpt lat="50.43004" lon="3.43883">
        <ele>16.9149</ele>
        <time>2021-06-29T18:52:14.428Z</time>
      </trkpt>
      <trkpt lat="50.42995" lon="3.43894">
        <ele>17.03741</ele>
        <time>2021-06-29T18:52:17.684Z</time>
      </trkpt>
      <trkpt lat="50.42935" lon="3.43956">
        <ele>18.053629</ele>
        <time>2021-06-29T18:52:37.169Z</time>
      </trkpt>
      <trkpt lat="50.42927" lon="3.43966">
        <ele>18.330233</ele>
        <time>2021-06-29T18:52:39.965Z</time>
      </trkpt>
      <trkpt lat="50.42918" lon="3.43977">
        <ele>18.636654</ele>
        <time>2021-06-29T18:52:42.854Z</time>
      </trkpt>
      <trkpt lat="50.4291" lon="3.43985">
        <ele>18.870599</ele>
        <time>2021-06-29T18:52:45.136Z</time>
      </trkpt>
      <trkpt lat="50.42899" lon="3.44001">
        <ele>19.27483</ele>
        <time>2021-06-29T18:52:48.819Z</time>
      </trkpt>
      <trkpt lat="50.42896" lon="3.44005">
        <ele>19.380736</ele>
        <time>2021-06-29T18:52:49.994Z</time>
      </trkpt>
      <trkpt lat="50.42889" lon="3.44025">
        <ele>19.748462</ele>
        <time>2021-06-29T18:52:53.441Z</time>
      </trkpt>
      <trkpt lat="50.42889" lon="3.4403">
        <ele>19.83873</ele>
        <time>2021-06-29T18:52:54.474Z</time>
      </trkpt>
      <trkpt lat="50.42889" lon="3.44036">
        <ele>19.945599</ele>
        <time>2021-06-29T18:52:55.588Z</time>
      </trkpt>
      <trkpt lat="50.42891" lon="3.44047">
        <ele>20.133832</ele>
        <time>2021-06-29T18:52:57.199Z</time>
      </trkpt>
      <trkpt lat="50.42896" lon="3.44056">
        <ele>20.323056</ele>
        <time>2021-06-29T18:52:59.220Z</time>
      </trkpt>
      <trkpt lat="50.42901" lon="3.44061">
        <ele>20.467452</ele>
        <time>2021-06-29T18:53:00.556Z</time>
      </trkpt>
      <trkpt lat="50.42909" lon="3.44073">
        <ele>20.759024</ele>
        <time>2021-06-29T18:53:03.570Z</time>
      </trkpt>
      <trkpt lat="50.42913" lon="3.44084">
        <ele>20.988042</ele>
        <time>2021-06-29T18:53:05.796Z</time>
      </trkpt>
      <trkpt lat="50.42918" lon="3.44121">
        <ele>21.60994</ele>
        <time>2021-06-29T18:53:12.516Z</time>
      </trkpt>
      <trkpt lat="50.42919" lon="3.44197">
        <ele>22.747168</ele>
        <time>2021-06-29T18:53:26.090Z</time>
      </trkpt>
      <trkpt lat="50.42909" lon="3.44332">
        <ele>24.535135</ele>
        <time>2021-06-29T18:53:48.259Z</time>
      </trkpt>
      <trkpt lat="50.42907" lon="3.44348">
        <ele>24.746729</ele>
        <time>2021-06-29T18:53:50.988Z</time>
      </trkpt>
      <trkpt lat="50.42904" lon="3.44386">
        <ele>25.244497</ele>
        <time>2021-06-29T18:53:55.503Z</time>
      </trkpt>
      <trkpt lat="50.42907" lon="3.44391">
        <ele>25.324442</ele>
        <time>2021-06-29T18:53:56.947Z</time>
      </trkpt>
      <trkpt lat="50.42912" lon="3.44396">
        <ele>25.459269</ele>
        <time>2021-06-29T18:53:58.185Z</time>
      </trkpt>
      <trkpt lat="50.43049" lon="3.44535">
        <ele>25.69212</ele>
        <time>2021-06-29T18:54:22.279Z</time>
      </trkpt>
      <trkpt lat="50.43297" lon="3.44785">
        <ele>22.725291</ele>
        <time>2021-06-29T18:54:57.450Z</time>
      </trkpt>
      <trkpt lat="50.43336" lon="3.44825">
        <ele>22.236635</ele>
        <time>2021-06-29T18:55:02.823Z</time>
      </trkpt>
      <trkpt lat="50.43407" lon="3.44895">
        <ele>21.827154</ele>
        <time>2021-06-29T18:55:13.332Z</time>
      </trkpt>
      <trkpt lat="50.43438" lon="3.44927">
        <ele>22.223842</ele>
        <time>2021-06-29T18:55:19.264Z</time>
      </trkpt>
      <trkpt lat="50.43489" lon="3.44978">
        <ele>22.854103</ele>
        <time>2021-06-29T18:55:30.968Z</time>
      </trkpt>
      <trkpt lat="50.43558" lon="3.45046">
        <ele>23.992953</ele>
        <time>2021-06-29T18:55:50.731Z</time>
      </trkpt>
      <trkpt lat="50.43655" lon="3.45143">
        <ele>26.683356</ele>
        <time>2021-06-29T18:56:20.511Z</time>
      </trkpt>
      <trkpt lat="50.43673" lon="3.4516">
        <ele>27.180577</ele>
        <time>2021-06-29T18:56:25.773Z</time>
      </trkpt>
      <trkpt lat="50.43679" lon="3.45166">
        <ele>27.352278</ele>
        <time>2021-06-29T18:56:27.316Z</time>
      </trkpt>
      <trkpt lat="50.4371" lon="3.45198">
        <ele>27.666569</ele>
        <time>2021-06-29T18:56:35.077Z</time>
      </trkpt>
      <trkpt lat="50.43716" lon="3.45204">
        <ele>27.656587</ele>
        <time>2021-06-29T18:56:36.370Z</time>
      </trkpt>
      <trkpt lat="50.43725" lon="3.45213">
        <ele>27.641639</ele>
        <time>2021-06-29T18:56:38.641Z</time>
      </trkpt>
      <trkpt lat="50.43833" lon="3.45322">
        <ele>27.469073</ele>
        <time>2021-06-29T18:56:55.726Z</time>
      </trkpt>
      <trkpt lat="50.4384" lon="3.4533">
        <ele>27.457055</ele>
        <time>2021-06-29T18:56:56.709Z</time>
      </trkpt>
      <trkpt lat="50.43867" lon="3.45356">
        <ele>26.734371</ele>
        <time>2021-06-29T18:57:00.179Z</time>
      </trkpt>
      <trkpt lat="50.43887" lon="3.45376">
        <ele>26.138934</ele>
        <time>2021-06-29T18:57:02.719Z</time>
      </trkpt>
      <trkpt lat="50.43973" lon="3.45461">
        <ele>23.56</ele>
        <time>2021-06-29T18:57:13.201Z</time>
      </trkpt>
      <trkpt lat="50.44007" lon="3.45495">
        <ele>22.531315</ele>
        <time>2021-06-29T18:57:17.377Z</time>
      </trkpt>
      <trkpt lat="50.44022" lon="3.45509">
        <ele>22.089528</ele>
        <time>2021-06-29T18:57:19.131Z</time>
      </trkpt>
      <trkpt lat="50.4404" lon="3.45525">
        <ele>21.570877</ele>
        <time>2021-06-29T18:57:21.323Z</time>
      </trkpt>
      <trkpt lat="50.44047" lon="3.45531">
        <ele>21.368694</ele>
        <time>2021-06-29T18:57:22.124Z</time>
      </trkpt>
      <trkpt lat="50.44052" lon="3.45538">
        <ele>21.189537</ele>
        <time>2021-06-29T18:57:22.849Z</time>
      </trkpt>
      <trkpt lat="50.44052" lon="3.45538">
        <ele>21.186992</ele>
        <time>2021-06-29T18:57:22.852Z</time>
      </trkpt>
      <trkpt lat="50.44058" lon="3.45541">
        <ele>21.036568</ele>
        <time>2021-06-29T18:57:23.485Z</time>
      </trkpt>
      <trkpt lat="50.44064" lon="3.45544">
        <ele>20.868063</ele>
        <time>2021-06-29T18:57:24.194Z</time>
      </trkpt>
      <trkpt lat="50.44066" lon="3.45546">
        <ele>20.805918</ele>
        <time>2021-06-29T18:57:24.455Z</time>
      </trkpt>
      <trkpt lat="50.44068" lon="3.45548">
        <ele>20.74371</ele>
        <time>2021-06-29T18:57:24.724Z</time>
      </trkpt>
      <trkpt lat="50.44071" lon="3.45548">
        <ele>20.682291</ele>
        <time>2021-06-29T18:57:24.985Z</time>
      </trkpt>
      <trkpt lat="50.44073" lon="3.45554">
        <ele>20.569741</ele>
        <time>2021-06-29T18:57:25.439Z</time>
      </trkpt>
      <trkpt lat="50.44076" lon="3.45559">
        <ele>20.45199</ele>
        <time>2021-06-29T18:57:25.906Z</time>
      </trkpt>
      <trkpt lat="50.44076" lon="3.45559">
        <ele>20.45199</ele>
        <time>2021-06-29T18:57:25.910Z</time>
      </trkpt>
      <trkpt lat="50.44078" lon="3.45563">
        <ele>20.372288</ele>
        <time>2021-06-29T18:57:26.235Z</time>
      </trkpt>
      <trkpt lat="50.44085" lon="3.45569">
        <ele>20.180914</ele>
        <time>2021-06-29T18:57:27.020Z</time>
      </trkpt>
      <trkpt lat="50.44092" lon="3.45578">
        <ele>19.947584</ele>
        <time>2021-06-29T18:57:28.005Z</time>
      </trkpt>
      <trkpt lat="50.44123" lon="3.45609">
        <ele>19.018552</ele>
        <time>2021-06-29T18:57:31.873Z</time>
      </trkpt>
      <trkpt lat="50.44162" lon="3.4565">
        <ele>18.073965</ele>
        <time>2021-06-29T18:57:37.008Z</time>
      </trkpt>
      <trkpt lat="50.44248" lon="3.45733">
        <ele>16.844393</ele>
        <time>2021-06-29T18:57:48.767Z</time>
      </trkpt>
      <trkpt lat="50.44256" lon="3.45741">
        <ele>16.728836</ele>
        <time>2021-06-29T18:57:49.943Z</time>
      </trkpt>
      <trkpt lat="50.44256" lon="3.45741">
        <ele>16.728836</ele>
        <time>2021-06-29T18:57:49.944Z</time>
      </trkpt>
      <trkpt lat="50.44257" lon="3.45742">
        <ele>16.704515</ele>
        <time>2021-06-29T18:57:50.172Z</time>
      </trkpt>
      <trkpt lat="50.4426" lon="3.45745">
        <ele>16.664808</ele>
        <time>2021-06-29T18:57:50.568Z</time>
      </trkpt>
      <trkpt lat="50.44385" lon="3.45872">
        <ele>16.153377</ele>
        <time>2021-06-29T18:58:10.415Z</time>
      </trkpt>
      <trkpt lat="50.4439" lon="3.45878">
        <ele>16.155645</ele>
        <time>2021-06-29T18:58:11.459Z</time>
      </trkpt>
      <trkpt lat="50.44392" lon="3.45879">
        <ele>16.156381</ele>
        <time>2021-06-29T18:58:11.788Z</time>
      </trkpt>
      <trkpt lat="50.44398" lon="3.45886">
        <ele>16.159105</ele>
        <time>2021-06-29T18:58:13.077Z</time>
      </trkpt>
      <trkpt lat="50.4448" lon="3.45969">
        <ele>16.517872</ele>
        <time>2021-06-29T18:58:30.935Z</time>
      </trkpt>
      <trkpt lat="50.44498" lon="3.45985">
        <ele>16.700159</ele>
        <time>2021-06-29T18:58:34.678Z</time>
      </trkpt>
      <trkpt lat="50.44499" lon="3.45987">
        <ele>16.719327</ele>
        <time>2021-06-29T18:58:35.187Z</time>
      </trkpt>
      <trkpt lat="50.445" lon="3.45987">
        <ele>16.724652</ele>
        <time>2021-06-29T18:58:35.320Z</time>
      </trkpt>
      <trkpt lat="50.44506" lon="3.45993">
        <ele>16.792199</ele>
        <time>2021-06-29T18:58:36.675Z</time>
      </trkpt>
      <trkpt lat="50.44537" lon="3.46025">
        <ele>17.123247</ele>
        <time>2021-06-29T18:58:43.536Z</time>
      </trkpt>
      <trkpt lat="50.44572" lon="3.4606">
        <ele>17.493562</ele>
        <time>2021-06-29T18:58:51.264Z</time>
      </trkpt>
      <trkpt lat="50.44576" lon="3.46064">
        <ele>17.537223</ele>
        <time>2021-06-29T18:58:52.178Z</time>
      </trkpt>
      <trkpt lat="50.44581" lon="3.4607">
        <ele>17.590596</ele>
        <time>2021-06-29T18:58:53.295Z</time>
      </trkpt>
      <trkpt lat="50.44582" lon="3.46075">
        <ele>17.624821</ele>
        <time>2021-06-29T18:58:54.007Z</time>
      </trkpt>
      <trkpt lat="50.44582" lon="3.46083">
        <ele>17.668874</ele>
        <time>2021-06-29T18:58:54.880Z</time>
      </trkpt>
      <trkpt lat="50.44581" lon="3.4609">
        <ele>17.714412</ele>
        <time>2021-06-29T18:58:55.944Z</time>
      </trkpt>
      <trkpt lat="50.44577" lon="3.46098">
        <ele>17.767502</ele>
        <time>2021-06-29T18:58:56.960Z</time>
      </trkpt>
      <trkpt lat="50.44577" lon="3.46103">
        <ele>17.795659</ele>
        <time>2021-06-29T18:58:57.513Z</time>
      </trkpt>
      <trkpt lat="50.44577" lon="3.46106">
        <ele>17.804254</ele>
        <time>2021-06-29T18:58:57.895Z</time>
      </trkpt>
      <trkpt lat="50.44579" lon="3.46113">
        <ele>17.82151</ele>
        <time>2021-06-29T18:58:58.720Z</time>
      </trkpt>
      <trkpt lat="50.44582" lon="3.46119">
        <ele>17.841104</ele>
        <time>2021-06-29T18:58:59.663Z</time>
      </trkpt>
      <trkpt lat="50.44588" lon="3.46122">
        <ele>17.865847</ele>
        <time>2021-06-29T18:59:00.839Z</time>
      </trkpt>
      <trkpt lat="50.44612" lon="3.46086">
        <ele>17.994395</ele>
        <time>2021-06-29T18:59:06.804Z</time>
      </trkpt>
      <trkpt lat="50.4462" lon="3.46072">
        <ele>18.042743</ele>
        <time>2021-06-29T18:59:08.934Z</time>
      </trkpt>
      <trkpt lat="50.44633" lon="3.46054">
        <ele>18.107125</ele>
        <time>2021-06-29T18:59:11.679Z</time>
      </trkpt>
      <trkpt lat="50.44655" lon="3.4602">
        <ele>18.227856</ele>
        <time>2021-06-29T18:59:16.709Z</time>
      </trkpt>
      <trkpt lat="50.44663" lon="3.46005">
        <ele>18.275925</ele>
        <time>2021-06-29T18:59:18.686Z</time>
      </trkpt>
      <trkpt lat="50.44667" lon="3.45993">
        <ele>18.311669</ele>
        <time>2021-06-29T18:59:20.086Z</time>
      </trkpt>
      <trkpt lat="50.44712" lon="3.45709">
        <ele>18.207563</ele>
        <time>2021-06-29T18:59:46.651Z</time>
      </trkpt>
      <trkpt lat="50.44714" lon="3.45691">
        <ele>18.183773</ele>
        <time>2021-06-29T18:59:48.209Z</time>
      </trkpt>
      <trkpt lat="50.44714" lon="3.45674">
        <ele>18.160711</ele>
        <time>2021-06-29T18:59:49.782Z</time>
      </trkpt>
      <trkpt lat="50.44711" lon="3.45637">
        <ele>18.097618</ele>
        <time>2021-06-29T18:59:53.048Z</time>
      </trkpt>
      <trkpt lat="50.44677" lon="3.45503">
        <ele>17.674135</ele>
        <time>2021-06-29T19:00:05.491Z</time>
      </trkpt>
      <trkpt lat="50.44672" lon="3.45464">
        <ele>17.555884</ele>
        <time>2021-06-29T19:00:08.890Z</time>
      </trkpt>
      <trkpt lat="50.44677" lon="3.45429">
        <ele>17.451795</ele>
        <time>2021-06-29T19:00:11.886Z</time>
      </trkpt>
      <trkpt lat="50.44718" lon="3.45255">
        <ele>16.798583</ele>
        <time>2021-06-29T19:00:27.250Z</time>
      </trkpt>
      <trkpt lat="50.44737" lon="3.45214">
        <ele>16.606218</ele>
        <time>2021-06-29T19:00:31.520Z</time>
      </trkpt>
      <trkpt lat="50.44746" lon="3.45199">
        <ele>16.530569</ele>
        <time>2021-06-29T19:00:33.083Z</time>
      </trkpt>
      <trkpt lat="50.44752" lon="3.4519">
        <ele>16.481956</ele>
        <time>2021-06-29T19:00:34.218Z</time>
      </trkpt>
      <trkpt lat="50.44761" lon="3.45171">
        <ele>16.392982</ele>
        <time>2021-06-29T19:00:36.272Z</time>
      </trkpt>
      <trkpt lat="50.44775" lon="3.45127">
        <ele>16.213234</ele>
        <time>2021-06-29T19:00:40.438Z</time>
      </trkpt>
      <trkpt lat="50.44777" lon="3.45124">
        <ele>16.202903</ele>
        <time>2021-06-29T19:00:40.777Z</time>
      </trkpt>
      <trkpt lat="50.44783" lon="3.45112">
        <ele>16.161302</ele>
        <time>2021-06-29T19:00:42.002Z</time>
      </trkpt>
      <trkpt lat="50.44789" lon="3.45112">
        <ele>16.136743</ele>
        <time>2021-06-29T19:00:42.747Z</time>
      </trkpt>
      <trkpt lat="50.44796" lon="3.45117">
        <ele>16.106213</ele>
        <time>2021-06-29T19:00:43.755Z</time>
      </trkpt>
      <trkpt lat="50.44799" lon="3.45121">
        <ele>16.087239</ele>
        <time>2021-06-29T19:00:44.396Z</time>
      </trkpt>
      <trkpt lat="50.44815" lon="3.45146">
        <ele>15.99249</ele>
        <time>2021-06-29T19:00:47.323Z</time>
      </trkpt>
      <trkpt lat="50.44827" lon="3.45163">
        <ele>15.92442</ele>
        <time>2021-06-29T19:00:49.600Z</time>
      </trkpt>
      <trkpt lat="50.44838" lon="3.45177">
        <ele>15.865039</ele>
        <time>2021-06-29T19:00:51.464Z</time>
      </trkpt>
      <trkpt lat="50.44874" lon="3.45212">
        <ele>15.683469</ele>
        <time>2021-06-29T19:00:57.303Z</time>
      </trkpt>
      <trkpt lat="50.44923" lon="3.45239">
        <ele>15.464969</ele>
        <time>2021-06-29T19:01:04.433Z</time>
      </trkpt>
      <trkpt lat="50.44996" lon="3.45262">
        <ele>15.163422</ele>
        <time>2021-06-29T19:01:14.546Z</time>
      </trkpt>
      <trkpt lat="50.45006" lon="3.45264">
        <ele>15.121691</ele>
        <time>2021-06-29T19:01:15.855Z</time>
      </trkpt>
      <trkpt lat="50.4502" lon="3.45275">
        <ele>15.059258</ele>
        <time>2021-06-29T19:01:18.006Z</time>
      </trkpt>
      <trkpt lat="50.45026" lon="3.45283">
        <ele>15.024653</ele>
        <time>2021-06-29T19:01:19.131Z</time>
      </trkpt>
      <trkpt lat="50.4503" lon="3.45288">
        <ele>15.005726</ele>
        <time>2021-06-29T19:01:19.737Z</time>
      </trkpt>
      <trkpt lat="50.45031" lon="3.45294">
        <ele>14.989248</ele>
        <time>2021-06-29T19:01:20.239Z</time>
      </trkpt>
      <trkpt lat="50.45047" lon="3.45312">
        <ele>14.910414</ele>
        <time>2021-06-29T19:01:22.907Z</time>
      </trkpt>
      <trkpt lat="50.45051" lon="3.45313">
        <ele>14.894069</ele>
        <time>2021-06-29T19:01:23.431Z</time>
      </trkpt>
      <trkpt lat="50.45054" lon="3.45312">
        <ele>14.881804</ele>
        <time>2021-06-29T19:01:23.836Z</time>
      </trkpt>
      <trkpt lat="50.45065" lon="3.45304">
        <ele>14.832163</ele>
        <time>2021-06-29T19:01:25.390Z</time>
      </trkpt>
      <trkpt lat="50.45067" lon="3.45301">
        <ele>14.819877</ele>
        <time>2021-06-29T19:01:25.813Z</time>
      </trkpt>
      <trkpt lat="50.45069" lon="3.45296">
        <ele>14.804296</ele>
        <time>2021-06-29T19:01:26.334Z</time>
      </trkpt>
      <trkpt lat="50.45072" lon="3.45279">
        <ele>14.757682</ele>
        <time>2021-06-29T19:01:27.928Z</time>
      </trkpt>
      <trkpt lat="50.45072" lon="3.45273">
        <ele>14.742072</ele>
        <time>2021-06-29T19:01:28.424Z</time>
      </trkpt>
      <trkpt lat="50.45074" lon="3.45264">
        <ele>14.71826</ele>
        <time>2021-06-29T19:01:29.189Z</time>
      </trkpt>
      <trkpt lat="50.45079" lon="3.45253">
        <ele>14.681861</ele>
        <time>2021-06-29T19:01:30.322Z</time>
      </trkpt>
      <trkpt lat="50.4509" lon="3.45232">
        <ele>14.610682</ele>
        <time>2021-06-29T19:01:32.719Z</time>
      </trkpt>
      <trkpt lat="50.45102" lon="3.4522">
        <ele>14.55224</ele>
        <time>2021-06-29T19:01:34.543Z</time>
      </trkpt>
      <trkpt lat="50.45123" lon="3.45199">
        <ele>14.450843</ele>
        <time>2021-06-29T19:01:37.854Z</time>
      </trkpt>
      <trkpt lat="50.45178" lon="3.45123">
        <ele>14.15088</ele>
        <time>2021-06-29T19:01:47.702Z</time>
      </trkpt>
      <trkpt lat="50.45213" lon="3.4505">
        <ele>14.023114</ele>
        <time>2021-06-29T19:01:55.680Z</time>
      </trkpt>
      <trkpt lat="50.45227" lon="3.45006">
        <ele>14.056731</ele>
        <time>2021-06-29T19:02:00.211Z</time>
      </trkpt>
      <trkpt lat="50.4525" lon="3.44922">
        <ele>14.118653</ele>
        <time>2021-06-29T19:02:08.884Z</time>
      </trkpt>
      <trkpt lat="50.45269" lon="3.44854">
        <ele>14.16947</ele>
        <time>2021-06-29T19:02:16.339Z</time>
      </trkpt>
      <trkpt lat="50.45312" lon="3.44694">
        <ele>14.70817</ele>
        <time>2021-06-29T19:02:35.769Z</time>
      </trkpt>
      <trkpt lat="50.45331" lon="3.44624">
        <ele>14.988631</ele>
        <time>2021-06-29T19:02:44.572Z</time>
      </trkpt>
      <trkpt lat="50.45358" lon="3.44521">
        <ele>15.271656</ele>
        <time>2021-06-29T19:02:56.308Z</time>
      </trkpt>
      <trkpt lat="50.4537" lon="3.44474">
        <ele>15.312085</ele>
        <time>2021-06-29T19:03:01.324Z</time>
      </trkpt>
      <trkpt lat="50.45379" lon="3.44451">
        <ele>15.334688</ele>
        <time>2021-06-29T19:03:04.018Z</time>
      </trkpt>
      <trkpt lat="50.45394" lon="3.44419">
        <ele>15.366153</ele>
        <time>2021-06-29T19:03:07.829Z</time>
      </trkpt>
      <trkpt lat="50.45398" lon="3.44411">
        <ele>15.37415</ele>
        <time>2021-06-29T19:03:08.746Z</time>
      </trkpt>
      <trkpt lat="50.45401" lon="3.4441">
        <ele>15.378985</ele>
        <time>2021-06-29T19:03:09.337Z</time>
      </trkpt>
      <trkpt lat="50.45405" lon="3.44408">
        <ele>15.384291</ele>
        <time>2021-06-29T19:03:10.026Z</time>
      </trkpt>
      <trkpt lat="50.45408" lon="3.44406">
        <ele>15.387836</ele>
        <time>2021-06-29T19:03:10.427Z</time>
      </trkpt>
      <trkpt lat="50.45412" lon="3.44401">
        <ele>15.395043</ele>
        <time>2021-06-29T19:03:11.276Z</time>
      </trkpt>
      <trkpt lat="50.45417" lon="3.44391">
        <ele>15.404615</ele>
        <time>2021-06-29T19:03:12.421Z</time>
      </trkpt>
      <trkpt lat="50.45418" lon="3.44382">
        <ele>15.412246</ele>
        <time>2021-06-29T19:03:13.258Z</time>
      </trkpt>
      <trkpt lat="50.45416" lon="3.44361">
        <ele>15.429777</ele>
        <time>2021-06-29T19:03:15.341Z</time>
      </trkpt>
      <trkpt lat="50.45412" lon="3.44353">
        <ele>15.437206</ele>
        <time>2021-06-29T19:03:16.165Z</time>
      </trkpt>
      <trkpt lat="50.45414" lon="3.44324">
        <ele>15.461201</ele>
        <time>2021-06-29T19:03:18.854Z</time>
      </trkpt>
      <trkpt lat="50.45422" lon="3.44278">
        <ele>15.470718</ele>
        <time>2021-06-29T19:03:23.091Z</time>
      </trkpt>
      <trkpt lat="50.45496" lon="3.44019">
        <ele>15.579965</ele>
        <time>2021-06-29T19:03:50.245Z</time>
      </trkpt>
      <trkpt lat="50.45557" lon="3.43795">
        <ele>15.922289</ele>
        <time>2021-06-29T19:04:15.515Z</time>
      </trkpt>
      <trkpt lat="50.45569" lon="3.4376">
        <ele>15.859501</ele>
        <time>2021-06-29T19:04:19.373Z</time>
      </trkpt>
      <trkpt lat="50.45577" lon="3.43737">
        <ele>15.817508</ele>
        <time>2021-06-29T19:04:21.833Z</time>
      </trkpt>
      <trkpt lat="50.45581" lon="3.43737">
        <ele>15.806508</ele>
        <time>2021-06-29T19:04:22.474Z</time>
      </trkpt>
      <trkpt lat="50.45584" lon="3.43736">
        <ele>15.800416</ele>
        <time>2021-06-29T19:04:22.839Z</time>
      </trkpt>
      <trkpt lat="50.45587" lon="3.43739">
        <ele>15.790605</ele>
        <time>2021-06-29T19:04:23.461Z</time>
      </trkpt>
      <trkpt lat="50.45592" lon="3.43745">
        <ele>15.775292</ele>
        <time>2021-06-29T19:04:24.338Z</time>
      </trkpt>
      <trkpt lat="50.45597" lon="3.43755">
        <ele>15.754685</ele>
        <time>2021-06-29T19:04:25.562Z</time>
      </trkpt>
      <trkpt lat="50.45599" lon="3.4377">
        <ele>15.730476</ele>
        <time>2021-06-29T19:04:26.873Z</time>
      </trkpt>
      <trkpt lat="50.45606" lon="3.43809">
        <ele>15.666261</ele>
        <time>2021-06-29T19:04:30.492Z</time>
      </trkpt>
      <trkpt lat="50.45643" lon="3.43918">
        <ele>15.449147</ele>
        <time>2021-06-29T19:04:40.733Z</time>
      </trkpt>
      <trkpt lat="50.45723" lon="3.44091">
        <ele>14.611077</ele>
        <time>2021-06-29T19:04:58.299Z</time>
      </trkpt>
      <trkpt lat="50.45739" lon="3.44125">
        <ele>14.447281</ele>
        <time>2021-06-29T19:05:01.814Z</time>
      </trkpt>
      <trkpt lat="50.45755" lon="3.44154">
        <ele>14.377536</ele>
        <time>2021-06-29T19:05:04.999Z</time>
      </trkpt>
      <trkpt lat="50.4576" lon="3.44163">
        <ele>14.37517</ele>
        <time>2021-06-29T19:05:06.150Z</time>
      </trkpt>
      <trkpt lat="50.45772" lon="3.44169">
        <ele>14.371814</ele>
        <time>2021-06-29T19:05:07.762Z</time>
      </trkpt>
      <trkpt lat="50.45782" lon="3.44176">
        <ele>14.368602</ele>
        <time>2021-06-29T19:05:09.363Z</time>
      </trkpt>
      <trkpt lat="50.45792" lon="3.44185">
        <ele>14.365432</ele>
        <time>2021-06-29T19:05:10.963Z</time>
      </trkpt>
      <trkpt lat="50.45827" lon="3.44242">
        <ele>14.351444</ele>
        <time>2021-06-29T19:05:18.352Z</time>
      </trkpt>
      <trkpt lat="50.45851" lon="3.44292">
        <ele>14.340174</ele>
        <time>2021-06-29T19:05:24.713Z</time>
      </trkpt>
      <trkpt lat="50.45866" lon="3.44325">
        <ele>14.332977</ele>
        <time>2021-06-29T19:05:28.834Z</time>
      </trkpt>
      <trkpt lat="50.4588" lon="3.44345">
        <ele>14.365641</ele>
        <time>2021-06-29T19:05:31.893Z</time>
      </trkpt>
      <trkpt lat="50.45898" lon="3.44372">
        <ele>14.442918</ele>
        <time>2021-06-29T19:05:35.944Z</time>
      </trkpt>
      <trkpt lat="50.45909" lon="3.44388">
        <ele>14.487765</ele>
        <time>2021-06-29T19:05:38.382Z</time>
      </trkpt>
      <trkpt lat="50.45955" lon="3.4443">
        <ele>14.649324</ele>
        <time>2021-06-29T19:05:46.957Z</time>
      </trkpt>
      <trkpt lat="50.46141" lon="3.44582">
        <ele>15.061292</ele>
        <time>2021-06-29T19:06:20.248Z</time>
      </trkpt>
      <trkpt lat="50.46228" lon="3.44659">
        <ele>14.946195</ele>
        <time>2021-06-29T19:06:34.555Z</time>
      </trkpt>
      <trkpt lat="50.46294" lon="3.44747">
        <ele>14.665863</ele>
        <time>2021-06-29T19:06:46.244Z</time>
      </trkpt>
      <trkpt lat="50.46322" lon="3.4481">
        <ele>14.502792</ele>
        <time>2021-06-29T19:06:52.819Z</time>
      </trkpt>
      <trkpt lat="50.46356" lon="3.44902">
        <ele>14.258935</ele>
        <time>2021-06-29T19:07:01.869Z</time>
      </trkpt>
      <trkpt lat="50.46456" lon="3.45094">
        <ele>13.930669</ele>
        <time>2021-06-29T19:07:23.646Z</time>
      </trkpt>
      <trkpt lat="50.46527" lon="3.45171">
        <ele>13.994058</ele>
        <time>2021-06-29T19:07:36.778Z</time>
      </trkpt>
      <trkpt lat="50.4656" lon="3.45215">
        <ele>14.084214</ele>
        <time>2021-06-29T19:07:43.651Z</time>
      </trkpt>
      <trkpt lat="50.4658" lon="3.45245">
        <ele>14.439993</ele>
        <time>2021-06-29T19:07:48.674Z</time>
      </trkpt>
      <trkpt lat="50.46587" lon="3.45258">
        <ele>14.577259</ele>
        <time>2021-06-29T19:07:50.529Z</time>
      </trkpt>
      <trkpt lat="50.46588" lon="3.45263">
        <ele>14.617367</ele>
        <time>2021-06-29T19:07:51.111Z</time>
      </trkpt>
      <trkpt lat="50.46592" lon="3.4527">
        <ele>14.697081</ele>
        <time>2021-06-29T19:07:52.462Z</time>
      </trkpt>
      <trkpt lat="50.46594" lon="3.45272">
        <ele>14.736482</ele>
        <time>2021-06-29T19:07:53.076Z</time>
      </trkpt>
      <trkpt lat="50.466" lon="3.45278">
        <ele>14.821418</ele>
        <time>2021-06-29T19:07:54.290Z</time>
      </trkpt>
      <trkpt lat="50.46603" lon="3.45282">
        <ele>14.869374</ele>
        <time>2021-06-29T19:07:54.953Z</time>
      </trkpt>
      <trkpt lat="50.46611" lon="3.453">
        <ele>15.046029</ele>
        <time>2021-06-29T19:07:57.473Z</time>
      </trkpt>
      <trkpt lat="50.46617" lon="3.45316">
        <ele>15.203003</ele>
        <time>2021-06-29T19:08:00.214Z</time>
      </trkpt>
      <trkpt lat="50.46665" lon="3.45387">
        <ele>16.035798</ele>
        <time>2021-06-29T19:08:14.289Z</time>
      </trkpt>
      <trkpt lat="50.46666" lon="3.45387">
        <ele>16.045289</ele>
        <time>2021-06-29T19:08:14.651Z</time>
      </trkpt>
      <trkpt lat="50.46673" lon="3.45396">
        <ele>16.162132</ele>
        <time>2021-06-29T19:08:16.668Z</time>
      </trkpt>
      <trkpt lat="50.46689" lon="3.45418">
        <ele>16.436372</ele>
        <time>2021-06-29T19:08:21.293Z</time>
      </trkpt>
      <trkpt lat="50.46717" lon="3.45443">
        <ele>16.865888</ele>
        <time>2021-06-29T19:08:28.257Z</time>
      </trkpt>
      <trkpt lat="50.46717" lon="3.45443">
        <ele>16.875503</ele>
        <time>2021-06-29T19:08:28.452Z</time>
      </trkpt>
      <trkpt lat="50.46726" lon="3.4545">
        <ele>17.009053</ele>
        <time>2021-06-29T19:08:31.042Z</time>
      </trkpt>
      <trkpt lat="50.46726" lon="3.45457">
        <ele>17.070684</ele>
        <time>2021-06-29T19:08:32.126Z</time>
      </trkpt>
      <trkpt lat="50.46728" lon="3.45469">
        <ele>17.183475</ele>
        <time>2021-06-29T19:08:33.403Z</time>
      </trkpt>
      <trkpt lat="50.46732" lon="3.4548">
        <ele>17.288256</ele>
        <time>2021-06-29T19:08:34.983Z</time>
      </trkpt>
      <trkpt lat="50.46736" lon="3.45503">
        <ele>17.49829</ele>
        <time>2021-06-29T19:08:38.718Z</time>
      </trkpt>
      <trkpt lat="50.46742" lon="3.45535">
        <ele>17.786117</ele>
        <time>2021-06-29T19:08:42.611Z</time>
      </trkpt>
      <trkpt lat="50.46746" lon="3.45554">
        <ele>17.958015</ele>
        <time>2021-06-29T19:08:45.490Z</time>
      </trkpt>
      <trkpt lat="50.46752" lon="3.45577">
        <ele>18.161912</ele>
        <time>2021-06-29T19:08:48.270Z</time>
      </trkpt>
      <trkpt lat="50.46756" lon="3.45588">
        <ele>18.273703</ele>
        <time>2021-06-29T19:08:49.884Z</time>
      </trkpt>
      <trkpt lat="50.46759" lon="3.45596">
        <ele>18.355733</ele>
        <time>2021-06-29T19:08:51.273Z</time>
      </trkpt>
      <trkpt lat="50.46766" lon="3.45612">
        <ele>18.522794</ele>
        <time>2021-06-29T19:08:53.814Z</time>
      </trkpt>
      <trkpt lat="50.46771" lon="3.45621">
        <ele>18.628378</ele>
        <time>2021-06-29T19:08:54.842Z</time>
      </trkpt>
      <trkpt lat="50.46786" lon="3.45654">
        <ele>18.698936</ele>
        <time>2021-06-29T19:08:59.767Z</time>
      </trkpt>
      <trkpt lat="50.46864" lon="3.45759">
        <ele>18.474231</ele>
        <time>2021-06-29T19:09:14.507Z</time>
      </trkpt>
      <trkpt lat="50.46912" lon="3.45839">
        <ele>18.255707</ele>
        <time>2021-06-29T19:09:23.152Z</time>
      </trkpt>
      <trkpt lat="50.46949" lon="3.45908">
        <ele>17.764273</ele>
        <time>2021-06-29T19:09:30.194Z</time>
      </trkpt>
      <trkpt lat="50.46982" lon="3.45983">
        <ele>17.268263</ele>
        <time>2021-06-29T19:09:37.481Z</time>
      </trkpt>
      <trkpt lat="50.46982" lon="3.45984">
        <ele>17.263365</ele>
        <time>2021-06-29T19:09:37.532Z</time>
      </trkpt>
      <trkpt lat="50.46983" lon="3.45999">
        <ele>17.184751</ele>
        <time>2021-06-29T19:09:38.656Z</time>
      </trkpt>
      <trkpt lat="50.46985" lon="3.46041">
        <ele>16.955225</ele>
        <time>2021-06-29T19:09:42.045Z</time>
      </trkpt>
      <trkpt lat="50.46974" lon="3.46142">
        <ele>16.57704</ele>
        <time>2021-06-29T19:09:50.460Z</time>
      </trkpt>
      <trkpt lat="50.46976" lon="3.4622">
        <ele>16.342286</ele>
        <time>2021-06-29T19:09:57.016Z</time>
      </trkpt>
      <trkpt lat="50.46964" lon="3.46297">
        <ele>16.100958</ele>
        <time>2021-06-29T19:10:04.068Z</time>
      </trkpt>
      <trkpt lat="50.46965" lon="3.46304">
        <ele>16.079377</ele>
        <time>2021-06-29T19:10:04.600Z</time>
      </trkpt>
      <trkpt lat="50.46967" lon="3.46315">
        <ele>16.043918</ele>
        <time>2021-06-29T19:10:05.859Z</time>
      </trkpt>
      <trkpt lat="50.46995" lon="3.46357">
        <ele>15.921023</ele>
        <time>2021-06-29T19:10:11.295Z</time>
      </trkpt>
      <trkpt lat="50.47006" lon="3.46371">
        <ele>15.900607</ele>
        <time>2021-06-29T19:10:13.120Z</time>
      </trkpt>
      <trkpt lat="50.47015" lon="3.46388">
        <ele>15.880483</ele>
        <time>2021-06-29T19:10:14.973Z</time>
      </trkpt>
      <trkpt lat="50.47019" lon="3.46397">
        <ele>15.870529</ele>
        <time>2021-06-29T19:10:16.090Z</time>
      </trkpt>
      <trkpt lat="50.47023" lon="3.46407">
        <ele>15.858778</ele>
        <time>2021-06-29T19:10:17.097Z</time>
      </trkpt>
      <trkpt lat="50.47035" lon="3.46455">
        <ele>15.811446</ele>
        <time>2021-06-29T19:10:21.832Z</time>
      </trkpt>
      <trkpt lat="50.47039" lon="3.46496">
        <ele>15.773196</ele>
        <time>2021-06-29T19:10:25.757Z</time>
      </trkpt>
      <trkpt lat="50.4703" lon="3.46565">
        <ele>15.708203</ele>
        <time>2021-06-29T19:10:32.497Z</time>
      </trkpt>
      <trkpt lat="50.47026" lon="3.46579">
        <ele>15.693874</ele>
        <time>2021-06-29T19:10:33.836Z</time>
      </trkpt>
      <trkpt lat="50.47006" lon="3.4663">
        <ele>15.750692</ele>
        <time>2021-06-29T19:10:39.331Z</time>
      </trkpt>
      <trkpt lat="50.47002" lon="3.46641">
        <ele>15.765762</ele>
        <time>2021-06-29T19:10:40.613Z</time>
      </trkpt>
      <trkpt lat="50.47001" lon="3.46644">
        <ele>15.769942</ele>
        <time>2021-06-29T19:10:40.982Z</time>
      </trkpt>
      <trkpt lat="50.46999" lon="3.46654">
        <ele>15.782492</ele>
        <time>2021-06-29T19:10:42.007Z</time>
      </trkpt>
      <trkpt lat="50.46993" lon="3.46686">
        <ele>15.823007</ele>
        <time>2021-06-29T19:10:45.071Z</time>
      </trkpt>
      <trkpt lat="50.4699" lon="3.46702">
        <ele>15.842588</ele>
        <time>2021-06-29T19:10:46.780Z</time>
      </trkpt>
      <trkpt lat="50.46992" lon="3.4673">
        <ele>15.876854</ele>
        <time>2021-06-29T19:10:49.409Z</time>
      </trkpt>
      <trkpt lat="50.46995" lon="3.46737">
        <ele>15.887103</ele>
        <time>2021-06-29T19:10:50.242Z</time>
      </trkpt>
      <trkpt lat="50.47022" lon="3.46798">
        <ele>15.975522</ele>
        <time>2021-06-29T19:10:57.894Z</time>
      </trkpt>
      <trkpt lat="50.47076" lon="3.46911">
        <ele>16.380386</ele>
        <time>2021-06-29T19:11:13.018Z</time>
      </trkpt>
      <trkpt lat="50.47088" lon="3.46936">
        <ele>16.493145</ele>
        <time>2021-06-29T19:11:16.436Z</time>
      </trkpt>
      <trkpt lat="50.47137" lon="3.4704">
        <ele>16.954844</ele>
        <time>2021-06-29T19:11:30.533Z</time>
      </trkpt>
      <trkpt lat="50.47168" lon="3.47074">
        <ele>17.203988</ele>
        <time>2021-06-29T19:11:37.328Z</time>
      </trkpt>
      <trkpt lat="50.47209" lon="3.47082">
        <ele>17.494777</ele>
        <time>2021-06-29T19:11:44.754Z</time>
      </trkpt>
      <trkpt lat="50.4742" lon="3.47072">
        <ele>18.786308</ele>
        <time>2021-06-29T19:12:22.218Z</time>
      </trkpt>
      <trkpt lat="50.47445" lon="3.47078">
        <ele>18.907683</ele>
        <time>2021-06-29T19:12:26.310Z</time>
      </trkpt>
      <trkpt lat="50.47472" lon="3.47101">
        <ele>19.058022</ele>
        <time>2021-06-29T19:12:31.232Z</time>
      </trkpt>
      <trkpt lat="50.47477" lon="3.47108">
        <ele>19.092466</ele>
        <time>2021-06-29T19:12:32.252Z</time>
      </trkpt>
      <trkpt lat="50.47557" lon="3.47219">
        <ele>19.466757</ele>
        <time>2021-06-29T19:12:48.607Z</time>
      </trkpt>
      <trkpt lat="50.47608" lon="3.4729">
        <ele>19.682513</ele>
        <time>2021-06-29T19:12:59.508Z</time>
      </trkpt>
      <trkpt lat="50.47618" lon="3.47311">
        <ele>19.73649</ele>
        <time>2021-06-29T19:13:02.503Z</time>
      </trkpt>
      <trkpt lat="50.47665" lon="3.47414">
        <ele>20.287543</ele>
        <time>2021-06-29T19:13:16.750Z</time>
      </trkpt>
      <trkpt lat="50.47674" lon="3.47431">
        <ele>20.393847</ele>
        <time>2021-06-29T19:13:19.425Z</time>
      </trkpt>
      <trkpt lat="50.47694" lon="3.47463">
        <ele>20.603385</ele>
        <time>2021-06-29T19:13:24.621Z</time>
      </trkpt>
      <trkpt lat="50.47776" lon="3.47555">
        <ele>21.2079</ele>
        <time>2021-06-29T19:13:42.673Z</time>
      </trkpt>
      <trkpt lat="50.47855" lon="3.47679">
        <ele>21.585643</ele>
        <time>2021-06-29T19:14:00.689Z</time>
      </trkpt>
      <trkpt lat="50.47868" lon="3.47693">
        <ele>21.641132</ele>
        <time>2021-06-29T19:14:03.111Z</time>
      </trkpt>
      <trkpt lat="50.47884" lon="3.47699">
        <ele>21.69665</ele>
        <time>2021-06-29T19:14:05.527Z</time>
      </trkpt>
      <trkpt lat="50.4791" lon="3.47682">
        <ele>21.6493</ele>
        <time>2021-06-29T19:14:09.559Z</time>
      </trkpt>
      <trkpt lat="50.47984" lon="3.47587">
        <ele>21.455306</ele>
        <time>2021-06-29T19:14:22.946Z</time>
      </trkpt>
      <trkpt lat="50.48003" lon="3.47576">
        <ele>21.415063</ele>
        <time>2021-06-29T19:14:25.658Z</time>
      </trkpt>
      <trkpt lat="50.48079" lon="3.47584">
        <ele>21.185504</ele>
        <time>2021-06-29T19:14:36.283Z</time>
      </trkpt>
      <trkpt lat="50.48115" lon="3.47588">
        <ele>21.04396</ele>
        <time>2021-06-29T19:14:41.237Z</time>
      </trkpt>
      <trkpt lat="50.48142" lon="3.47596">
        <ele>20.935215</ele>
        <time>2021-06-29T19:14:45.045Z</time>
      </trkpt>
      <trkpt lat="50.48177" lon="3.47618">
        <ele>20.783836</ele>
        <time>2021-06-29T19:14:50.127Z</time>
      </trkpt>
      <trkpt lat="50.48199" lon="3.4764">
        <ele>20.679653</ele>
        <time>2021-06-29T19:14:53.509Z</time>
      </trkpt>
      <trkpt lat="50.48208" lon="3.47651">
        <ele>20.635671</ele>
        <time>2021-06-29T19:14:55.010Z</time>
      </trkpt>
      <trkpt lat="50.48218" lon="3.47663">
        <ele>20.543776</ele>
        <time>2021-06-29T19:14:56.674Z</time>
      </trkpt>
      <trkpt lat="50.48224" lon="3.47669">
        <ele>20.48393</ele>
        <time>2021-06-29T19:14:57.532Z</time>
      </trkpt>
      <trkpt lat="50.48249" lon="3.47675">
        <ele>20.269642</ele>
        <time>2021-06-29T19:15:00.849Z</time>
      </trkpt>
      <trkpt lat="50.48285" lon="3.47677">
        <ele>19.963279</ele>
        <time>2021-06-29T19:15:05.438Z</time>
      </trkpt>
      <trkpt lat="50.48299" lon="3.47688">
        <ele>19.835191</ele>
        <time>2021-06-29T19:15:07.252Z</time>
      </trkpt>
      <trkpt lat="50.48378" lon="3.47911">
        <ele>18.594903</ele>
        <time>2021-06-29T19:15:27.293Z</time>
      </trkpt>
      <trkpt lat="50.48399" lon="3.47969">
        <ele>18.311797</ele>
        <time>2021-06-29T19:15:32.782Z</time>
      </trkpt>
      <trkpt lat="50.48411" lon="3.47976">
        <ele>18.225808</ele>
        <time>2021-06-29T19:15:34.524Z</time>
      </trkpt>
      <trkpt lat="50.48417" lon="3.47979">
        <ele>18.184174</ele>
        <time>2021-06-29T19:15:35.396Z</time>
      </trkpt>
      <trkpt lat="50.48424" lon="3.4796">
        <ele>18.091922</ele>
        <time>2021-06-29T19:15:37.205Z</time>
      </trkpt>
      <trkpt lat="50.48439" lon="3.47931">
        <ele>17.928035</ele>
        <time>2021-06-29T19:15:40.599Z</time>
      </trkpt>
      <trkpt lat="50.485" lon="3.47882">
        <ele>17.877954</ele>
        <time>2021-06-29T19:15:50.223Z</time>
      </trkpt>
      <trkpt lat="50.4856" lon="3.47846">
        <ele>17.853786</ele>
        <time>2021-06-29T19:16:00.103Z</time>
      </trkpt>
      <trkpt lat="50.48564" lon="3.47844">
        <ele>17.851955</ele>
        <time>2021-06-29T19:16:00.882Z</time>
      </trkpt>
      <trkpt lat="50.48665" lon="3.47798">
        <ele>17.755943</ele>
        <time>2021-06-29T19:16:16.605Z</time>
      </trkpt>
      <trkpt lat="50.48676" lon="3.47786">
        <ele>17.738178</ele>
        <time>2021-06-29T19:16:18.499Z</time>
      </trkpt>
      <trkpt lat="50.48683" lon="3.47766">
        <ele>17.718016</ele>
        <time>2021-06-29T19:16:20.510Z</time>
      </trkpt>
      <trkpt lat="50.48689" lon="3.47737">
        <ele>17.692627</ele>
        <time>2021-06-29T19:16:23.217Z</time>
      </trkpt>
      <trkpt lat="50.48701" lon="3.47672">
        <ele>17.634086</ele>
        <time>2021-06-29T19:16:29.241Z</time>
      </trkpt>
      <trkpt lat="50.48711" lon="3.47619">
        <ele>17.584831</ele>
        <time>2021-06-29T19:16:34.187Z</time>
      </trkpt>
      <trkpt lat="50.48723" lon="3.47576">
        <ele>17.524896</ele>
        <time>2021-06-29T19:16:38.505Z</time>
      </trkpt>
      <trkpt lat="50.48729" lon="3.47551">
        <ele>17.491053</ele>
        <time>2021-06-29T19:16:40.846Z</time>
      </trkpt>
      <trkpt lat="50.48742" lon="3.47483">
        <ele>17.400649</ele>
        <time>2021-06-29T19:16:47.222Z</time>
      </trkpt>
      <trkpt lat="50.48743" lon="3.4748">
        <ele>17.397012</ele>
        <time>2021-06-29T19:16:47.460Z</time>
      </trkpt>
      <trkpt lat="50.48757" lon="3.47361">
        <ele>17.243565</ele>
        <time>2021-06-29T19:16:58.420Z</time>
      </trkpt>
      <trkpt lat="50.48793" lon="3.46933">
        <ele>16.845954</ele>
        <time>2021-06-29T19:17:38.259Z</time>
      </trkpt>
      <trkpt lat="50.48795" lon="3.4691">
        <ele>16.809839</ele>
        <time>2021-06-29T19:17:40.206Z</time>
      </trkpt>
      <trkpt lat="50.488" lon="3.46856">
        <ele>16.724558</ele>
        <time>2021-06-29T19:17:45.209Z</time>
      </trkpt>
      <trkpt lat="50.48807" lon="3.46816">
        <ele>16.659557</ele>
        <time>2021-06-29T19:17:48.920Z</time>
      </trkpt>
      <trkpt lat="50.4887" lon="3.46679">
        <ele>16.138433</ele>
        <time>2021-06-29T19:18:02.909Z</time>
      </trkpt>
      <trkpt lat="50.48873" lon="3.46674">
        <ele>16.114841</ele>
        <time>2021-06-29T19:18:03.640Z</time>
      </trkpt>
      <trkpt lat="50.48892" lon="3.46634">
        <ele>15.947103</ele>
        <time>2021-06-29T19:18:09.488Z</time>
      </trkpt>
      <trkpt lat="50.4891" lon="3.46609">
        <ele>15.822061</ele>
        <time>2021-06-29T19:18:13.979Z</time>
      </trkpt>
      <trkpt lat="50.48919" lon="3.46599">
        <ele>15.766738</ele>
        <time>2021-06-29T19:18:15.816Z</time>
      </trkpt>
      <trkpt lat="50.48946" lon="3.46572">
        <ele>15.659483</ele>
        <time>2021-06-29T19:18:21.700Z</time>
      </trkpt>
      <trkpt lat="50.49052" lon="3.46461">
        <ele>15.462919</ele>
        <time>2021-06-29T19:18:45.787Z</time>
      </trkpt>
      <trkpt lat="50.4911" lon="3.46408">
        <ele>15.771944</ele>
        <time>2021-06-29T19:19:00.593Z</time>
      </trkpt>
      <trkpt lat="50.49198" lon="3.463">
        <ele>17.09464</ele>
        <time>2021-06-29T19:19:29.039Z</time>
      </trkpt>
      <trkpt lat="50.49258" lon="3.4619">
        <ele>18.322381</ele>
        <time>2021-06-29T19:19:54.389Z</time>
      </trkpt>
      <trkpt lat="50.49302" lon="3.46091">
        <ele>19.437603</ele>
        <time>2021-06-29T19:20:15.574Z</time>
      </trkpt>
      <trkpt lat="50.49375" lon="3.45959">
        <ele>20.053222</ele>
        <time>2021-06-29T19:20:40.944Z</time>
      </trkpt>
      <trkpt lat="50.49387" lon="3.45927">
        <ele>20.02344</ele>
        <time>2021-06-29T19:20:45.629Z</time>
      </trkpt>
      <trkpt lat="50.49394" lon="3.45893">
        <ele>19.994401</ele>
        <time>2021-06-29T19:20:49.907Z</time>
      </trkpt>
      <trkpt lat="50.49409" lon="3.45833">
        <ele>19.942471</ele>
        <time>2021-06-29T19:20:57.324Z</time>
      </trkpt>
      <trkpt lat="50.49463" lon="3.45576">
        <ele>18.849175</ele>
        <time>2021-06-29T19:21:27.650Z</time>
      </trkpt>
      <trkpt lat="50.4949" lon="3.45459">
        <ele>18.53263</ele>
        <time>2021-06-29T19:21:42.907Z</time>
      </trkpt>
      <trkpt lat="50.49498" lon="3.45423">
        <ele>18.508312</ele>
        <time>2021-06-29T19:21:47.703Z</time>
      </trkpt>
      <trkpt lat="50.49517" lon="3.4538">
        <ele>18.474761</ele>
        <time>2021-06-29T19:21:54.583Z</time>
      </trkpt>
      <trkpt lat="50.4954" lon="3.45338">
        <ele>18.439592</ele>
        <time>2021-06-29T19:22:01.941Z</time>
      </trkpt>
      <trkpt lat="50.49561" lon="3.45307">
        <ele>18.410448</ele>
        <time>2021-06-29T19:22:07.823Z</time>
      </trkpt>
      <trkpt lat="50.49592" lon="3.45277">
        <ele>18.340604</ele>
        <time>2021-06-29T19:22:14.944Z</time>
      </trkpt>
      <trkpt lat="50.49624" lon="3.45256">
        <ele>18.25126</ele>
        <time>2021-06-29T19:22:21.449Z</time>
      </trkpt>
      <trkpt lat="50.49648" lon="3.45244">
        <ele>18.185885</ele>
        <time>2021-06-29T19:22:26.260Z</time>
      </trkpt>
      <trkpt lat="50.49723" lon="3.45207">
        <ele>17.981491</ele>
        <time>2021-06-29T19:22:37.181Z</time>
      </trkpt>
      <trkpt lat="50.49811" lon="3.4518">
        <ele>17.917316</ele>
        <time>2021-06-29T19:22:49.515Z</time>
      </trkpt>
      <trkpt lat="50.49879" lon="3.45144">
        <ele>17.907353</ele>
        <time>2021-06-29T19:23:00.899Z</time>
      </trkpt>
      <trkpt lat="50.49885" lon="3.4514">
        <ele>17.906524</ele>
        <time>2021-06-29T19:23:01.952Z</time>
      </trkpt>
      <trkpt lat="50.49899" lon="3.45131">
        <ele>17.904468</ele>
        <time>2021-06-29T19:23:04.320Z</time>
      </trkpt>
      <trkpt lat="50.49912" lon="3.45121">
        <ele>17.902376</ele>
        <time>2021-06-29T19:23:06.781Z</time>
      </trkpt>
      <trkpt lat="50.49924" lon="3.45113">
        <ele>17.883917</ele>
        <time>2021-06-29T19:23:08.807Z</time>
      </trkpt>
      <trkpt lat="50.49935" lon="3.45106">
        <ele>17.860061</ele>
        <time>2021-06-29T19:23:10.520Z</time>
      </trkpt>
      <trkpt lat="50.49943" lon="3.45125">
        <ele>17.830455</ele>
        <time>2021-06-29T19:23:12.734Z</time>
      </trkpt>
      <trkpt lat="50.49958" lon="3.45159">
        <ele>17.778788</ele>
        <time>2021-06-29T19:23:16.264Z</time>
      </trkpt>
      <trkpt lat="50.49974" lon="3.45177">
        <ele>17.739088</ele>
        <time>2021-06-29T19:23:18.932Z</time>
      </trkpt>
      <trkpt lat="50.49999" lon="3.45188">
        <ele>17.689412</ele>
        <time>2021-06-29T19:23:22.136Z</time>
      </trkpt>
      <trkpt lat="50.50005" lon="3.45189">
        <ele>17.676797</ele>
        <time>2021-06-29T19:23:23.072Z</time>
      </trkpt>
      <trkpt lat="50.50044" lon="3.45199">
        <ele>17.598294</ele>
        <time>2021-06-29T19:23:28.646Z</time>
      </trkpt>
      <trkpt lat="50.50051" lon="3.45202">
        <ele>17.584373</ele>
        <time>2021-06-29T19:23:29.642Z</time>
      </trkpt>
      <trkpt lat="50.50052" lon="3.45203">
        <ele>17.58108</ele>
        <time>2021-06-29T19:23:29.883Z</time>
      </trkpt>
      <trkpt lat="50.50084" lon="3.45223">
        <ele>17.530096</ele>
        <time>2021-06-29T19:23:35.117Z</time>
      </trkpt>
      <trkpt lat="50.50092" lon="3.45227">
        <ele>17.522299</ele>
        <time>2021-06-29T19:23:36.330Z</time>
      </trkpt>
      <trkpt lat="50.5013" lon="3.45249">
        <ele>17.485364</ele>
        <time>2021-06-29T19:23:41.817Z</time>
      </trkpt>
      <trkpt lat="50.50142" lon="3.45258">
        <ele>17.473198</ele>
        <time>2021-06-29T19:23:43.708Z</time>
      </trkpt>
      <trkpt lat="50.50193" lon="3.45294">
        <ele>17.421527</ele>
        <time>2021-06-29T19:23:51.261Z</time>
      </trkpt>
      <trkpt lat="50.50229" lon="3.45322">
        <ele>17.385181</ele>
        <time>2021-06-29T19:23:56.983Z</time>
      </trkpt>
      <trkpt lat="50.5031" lon="3.45386">
        <ele>17.834248</ele>
        <time>2021-06-29T19:24:13.444Z</time>
      </trkpt>
      <trkpt lat="50.50341" lon="3.45413">
        <ele>18.023746</ele>
        <time>2021-06-29T19:24:19.498Z</time>
      </trkpt>
      <trkpt lat="50.50355" lon="3.45425">
        <ele>18.109308</ele>
        <time>2021-06-29T19:24:22.115Z</time>
      </trkpt>
      <trkpt lat="50.50407" lon="3.45459">
        <ele>18.406896</ele>
        <time>2021-06-29T19:24:31.466Z</time>
      </trkpt>
      <trkpt lat="50.50416" lon="3.45464">
        <ele>18.458724</ele>
        <time>2021-06-29T19:24:33.133Z</time>
      </trkpt>
      <trkpt lat="50.50444" lon="3.45482">
        <ele>18.613301</ele>
        <time>2021-06-29T19:24:38.282Z</time>
      </trkpt>
      <trkpt lat="50.50447" lon="3.4549">
        <ele>18.644582</ele>
        <time>2021-06-29T19:24:39.285Z</time>
      </trkpt>
      <trkpt lat="50.50448" lon="3.45508">
        <ele>18.705869</ele>
        <time>2021-06-29T19:24:41.252Z</time>
      </trkpt>
      <trkpt lat="50.50443" lon="3.45552">
        <ele>18.85137</ele>
        <time>2021-06-29T19:24:46.318Z</time>
      </trkpt>
      <trkpt lat="50.50441" lon="3.45568">
        <ele>18.90533</ele>
        <time>2021-06-29T19:24:48.000Z</time>
      </trkpt>
      <trkpt lat="50.50441" lon="3.45573">
        <ele>18.922292</ele>
        <time>2021-06-29T19:24:48.532Z</time>
      </trkpt>
      <trkpt lat="50.5044" lon="3.45588">
        <ele>18.973063</ele>
        <time>2021-06-29T19:24:50.381Z</time>
      </trkpt>
      <trkpt lat="50.50437" lon="3.45631">
        <ele>19.117167</ele>
        <time>2021-06-29T19:24:54.707Z</time>
      </trkpt>
      <trkpt lat="50.50436" lon="3.45642">
        <ele>19.153611</ele>
        <time>2021-06-29T19:24:56.095Z</time>
      </trkpt>
      <trkpt lat="50.50433" lon="3.4572">
        <ele>19.381728</ele>
        <time>2021-06-29T19:25:04.104Z</time>
      </trkpt>
      <trkpt lat="50.50424" lon="3.45772">
        <ele>19.523664</ele>
        <time>2021-06-29T19:25:09.775Z</time>
      </trkpt>
      <trkpt lat="50.5041" lon="3.45851">
        <ele>19.737928</ele>
        <time>2021-06-29T19:25:18.351Z</time>
      </trkpt>
      <trkpt lat="50.50361" lon="3.46074">
        <ele>20.342792</ele>
        <time>2021-06-29T19:25:43.609Z</time>
      </trkpt>
      <trkpt lat="50.50345" lon="3.46155">
        <ele>20.555378</ele>
        <time>2021-06-29T19:25:52.462Z</time>
      </trkpt>
      <trkpt lat="50.50335" lon="3.46236">
        <ele>20.725012</ele>
        <time>2021-06-29T19:26:00.677Z</time>
      </trkpt>
      <trkpt lat="50.50325" lon="3.46304">
        <ele>20.725012</ele>
        <time>2021-06-29T19:26:07.527Z</time>
      </trkpt>
      <trkpt lat="50.50317" lon="3.46374">
        <ele>20.725012</ele>
        <time>2021-06-29T19:26:14.337Z</time>
      </trkpt>
      <trkpt lat="50.50313" lon="3.46411">
        <ele>20.725012</ele>
        <time>2021-06-29T19:26:17.658Z</time>
      </trkpt>
      <trkpt lat="50.50316" lon="3.46422">
        <ele>20.725012</ele>
        <time>2021-06-29T19:26:18.875Z</time>
      </trkpt>
      <trkpt lat="50.5034" lon="3.46438">
        <ele>20.725012</ele>
        <time>2021-06-29T19:26:22.570Z</time>
      </trkpt>
      <trkpt lat="50.50361" lon="3.46454">
        <ele>20.725012</ele>
        <time>2021-06-29T19:26:25.893Z</time>
      </trkpt>
      <trkpt lat="50.50362" lon="3.46434">
        <ele>20.725012</ele>
        <time>2021-06-29T19:26:39.811Z</time>
      </trkpt>
      <trkpt lat="50.50362" lon="3.46434">
        <ele>20.725012</ele>
        <time>2021-06-29T19:26:39.824Z</time>
      </trkpt>
      <trkpt lat="50.50356" lon="3.46426">
        <ele>20.725012</ele>
        <time>2021-06-29T19:26:48.576Z</time>
      </trkpt>
      <trkpt lat="50.50347" lon="3.4642">
        <ele>20.725012</ele>
        <time>2021-06-29T19:26:58.778Z</time>
      </trkpt>
    </trkseg>
  </trk>
</gpx>